<?xml version="1.0" encoding="UTF-8" standalone="no" ?>
<gpx xmlns="http://www.topografix.com/GPX/1/1" xmlns:xsi="http://www.w3.org/2001/XMLSchema-instance" xsi:schemaLocation="http://www.topografix.com/GPX/1/1 http://www.topografix.com/GPX/1/1/gpx.xsd" version="1.1" creator="VisuGPX - https://www.visugpx.com">
  <metadata>
    <name>Péronnes-lez-Antoing / Flines-lez-Mortagne</name>
    <desc><![CDATA[Sans difficulté. A part  /- 3 km de routes peu fréquentées, le reste de cette rando se déroule soit le long de chemins herbeux, soit le long de l'Escaut.]]></desc>
  </metadata>
  <trk>
    <name><![CDATA[Parcours du 2018-04-29 10:21]]></name>
    <desc><![CDATA[]]></desc>
    <trkseg>
      <trkpt lat="50.5406" lon="3.44916">
        <ele>71</ele>
        <time>2018-04-29T08:21:51.000Z</time>
      </trkpt>
      <trkpt lat="50.54049" lon="3.44958">
        <ele>69</ele>
        <time>2018-04-29T08:21:57.000Z</time>
      </trkpt>
      <trkpt lat="50.54041" lon="3.44977">
        <ele>70</ele>
        <time>2018-04-29T08:22:00.000Z</time>
      </trkpt>
      <trkpt lat="50.5403" lon="3.4502">
        <ele>69</ele>
        <time>2018-04-29T08:22:06.000Z</time>
      </trkpt>
      <trkpt lat="50.54011" lon="3.45063">
        <ele>66</ele>
        <time>2018-04-29T08:22:12.000Z</time>
      </trkpt>
      <trkpt lat="50.53989" lon="3.45074">
        <ele>66</ele>
        <time>2018-04-29T08:22:18.000Z</time>
      </trkpt>
      <trkpt lat="50.53983" lon="3.45077">
        <ele>68</ele>
        <time>2018-04-29T08:22:21.000Z</time>
      </trkpt>
      <trkpt lat="50.53956" lon="3.45084">
        <ele>66</ele>
        <time>2018-04-29T08:22:27.000Z</time>
      </trkpt>
      <trkpt lat="50.53932" lon="3.4509">
        <ele>63</ele>
        <time>2018-04-29T08:22:33.000Z</time>
      </trkpt>
      <trkpt lat="50.53907" lon="3.45105">
        <ele>60</ele>
        <time>2018-04-29T08:22:39.000Z</time>
      </trkpt>
      <trkpt lat="50.53886" lon="3.45118">
        <ele>62</ele>
        <time>2018-04-29T08:22:45.000Z</time>
      </trkpt>
      <trkpt lat="50.53859" lon="3.45124">
        <ele>63</ele>
        <time>2018-04-29T08:22:51.000Z</time>
      </trkpt>
      <trkpt lat="50.53836" lon="3.45137">
        <ele>63</ele>
        <time>2018-04-29T08:22:57.000Z</time>
      </trkpt>
      <trkpt lat="50.53824" lon="3.45141">
        <ele>62</ele>
        <time>2018-04-29T08:23:00.000Z</time>
      </trkpt>
      <trkpt lat="50.53811" lon="3.45151">
        <ele>60</ele>
        <time>2018-04-29T08:23:03.000Z</time>
      </trkpt>
      <trkpt lat="50.53786" lon="3.45157">
        <ele>60</ele>
        <time>2018-04-29T08:23:09.000Z</time>
      </trkpt>
      <trkpt lat="50.53762" lon="3.4517">
        <ele>56</ele>
        <time>2018-04-29T08:23:15.000Z</time>
      </trkpt>
      <trkpt lat="50.5375" lon="3.45178">
        <ele>55</ele>
        <time>2018-04-29T08:23:18.000Z</time>
      </trkpt>
      <trkpt lat="50.53742" lon="3.45189">
        <ele>61</ele>
        <time>2018-04-29T08:23:21.000Z</time>
      </trkpt>
      <trkpt lat="50.53728" lon="3.45193">
        <ele>59</ele>
        <time>2018-04-29T08:23:24.000Z</time>
      </trkpt>
      <trkpt lat="50.53714" lon="3.45198">
        <ele>58</ele>
        <time>2018-04-29T08:23:27.000Z</time>
      </trkpt>
      <trkpt lat="50.53699" lon="3.45201">
        <ele>55</ele>
        <time>2018-04-29T08:23:33.000Z</time>
      </trkpt>
      <trkpt lat="50.5367" lon="3.45219">
        <ele>56</ele>
        <time>2018-04-29T08:23:39.000Z</time>
      </trkpt>
      <trkpt lat="50.53657" lon="3.45227">
        <ele>58</ele>
        <time>2018-04-29T08:23:42.000Z</time>
      </trkpt>
      <trkpt lat="50.53645" lon="3.45234">
        <ele>58</ele>
        <time>2018-04-29T08:23:45.000Z</time>
      </trkpt>
      <trkpt lat="50.53635" lon="3.45245">
        <ele>59</ele>
        <time>2018-04-29T08:23:48.000Z</time>
      </trkpt>
      <trkpt lat="50.53608" lon="3.45256">
        <ele>60</ele>
        <time>2018-04-29T08:23:54.000Z</time>
      </trkpt>
      <trkpt lat="50.53596" lon="3.4526">
        <ele>60</ele>
        <time>2018-04-29T08:23:57.000Z</time>
      </trkpt>
      <trkpt lat="50.5357" lon="3.45263">
        <ele>58</ele>
        <time>2018-04-29T08:24:03.000Z</time>
      </trkpt>
      <trkpt lat="50.53548" lon="3.45265">
        <ele>57</ele>
        <time>2018-04-29T08:24:09.000Z</time>
      </trkpt>
      <trkpt lat="50.53539" lon="3.45267">
        <ele>57</ele>
        <time>2018-04-29T08:24:12.000Z</time>
      </trkpt>
      <trkpt lat="50.53526" lon="3.45267">
        <ele>57</ele>
        <time>2018-04-29T08:24:15.000Z</time>
      </trkpt>
      <trkpt lat="50.53499" lon="3.45271">
        <ele>57</ele>
        <time>2018-04-29T08:24:21.000Z</time>
      </trkpt>
      <trkpt lat="50.53473" lon="3.45279">
        <ele>61</ele>
        <time>2018-04-29T08:24:27.000Z</time>
      </trkpt>
      <trkpt lat="50.53462" lon="3.45284">
        <ele>60</ele>
        <time>2018-04-29T08:24:30.000Z</time>
      </trkpt>
      <trkpt lat="50.53439" lon="3.45294">
        <ele>63</ele>
        <time>2018-04-29T08:24:36.000Z</time>
      </trkpt>
      <trkpt lat="50.53427" lon="3.45299">
        <ele>63</ele>
        <time>2018-04-29T08:24:39.000Z</time>
      </trkpt>
      <trkpt lat="50.5341" lon="3.45307">
        <ele>61</ele>
        <time>2018-04-29T08:24:45.000Z</time>
      </trkpt>
      <trkpt lat="50.53404" lon="3.45312">
        <ele>62</ele>
        <time>2018-04-29T08:24:48.000Z</time>
      </trkpt>
      <trkpt lat="50.53397" lon="3.45313">
        <ele>62</ele>
        <time>2018-04-29T08:24:51.000Z</time>
      </trkpt>
      <trkpt lat="50.5339" lon="3.45299">
        <ele>64</ele>
        <time>2018-04-29T08:24:57.000Z</time>
      </trkpt>
      <trkpt lat="50.5339" lon="3.45255">
        <ele>68</ele>
        <time>2018-04-29T08:25:03.000Z</time>
      </trkpt>
      <trkpt lat="50.5339" lon="3.45243">
        <ele>69</ele>
        <time>2018-04-29T08:25:06.000Z</time>
      </trkpt>
      <trkpt lat="50.53392" lon="3.4522">
        <ele>69</ele>
        <time>2018-04-29T08:25:12.000Z</time>
      </trkpt>
      <trkpt lat="50.53393" lon="3.45207">
        <ele>68</ele>
        <time>2018-04-29T08:25:15.000Z</time>
      </trkpt>
      <trkpt lat="50.53394" lon="3.45195">
        <ele>68</ele>
        <time>2018-04-29T08:25:18.000Z</time>
      </trkpt>
      <trkpt lat="50.53391" lon="3.45174">
        <ele>67</ele>
        <time>2018-04-29T08:25:24.000Z</time>
      </trkpt>
      <trkpt lat="50.53385" lon="3.45169">
        <ele>67</ele>
        <time>2018-04-29T08:25:27.000Z</time>
      </trkpt>
      <trkpt lat="50.53378" lon="3.45167">
        <ele>66</ele>
        <time>2018-04-29T08:25:30.000Z</time>
      </trkpt>
      <trkpt lat="50.53336" lon="3.45167">
        <ele>67</ele>
        <time>2018-04-29T08:25:39.000Z</time>
      </trkpt>
      <trkpt lat="50.53322" lon="3.45167">
        <ele>66</ele>
        <time>2018-04-29T08:25:42.000Z</time>
      </trkpt>
      <trkpt lat="50.53304" lon="3.45168">
        <ele>65</ele>
        <time>2018-04-29T08:25:48.000Z</time>
      </trkpt>
      <trkpt lat="50.53276" lon="3.45171">
        <ele>66</ele>
        <time>2018-04-29T08:25:54.000Z</time>
      </trkpt>
      <trkpt lat="50.53262" lon="3.45167">
        <ele>60</ele>
        <time>2018-04-29T08:26:00.000Z</time>
      </trkpt>
      <trkpt lat="50.53246" lon="3.45168">
        <ele>58</ele>
        <time>2018-04-29T08:26:06.000Z</time>
      </trkpt>
      <trkpt lat="50.53216" lon="3.45174">
        <ele>61</ele>
        <time>2018-04-29T08:26:12.000Z</time>
      </trkpt>
      <trkpt lat="50.53199" lon="3.45174">
        <ele>55</ele>
        <time>2018-04-29T08:26:18.000Z</time>
      </trkpt>
      <trkpt lat="50.53185" lon="3.45173">
        <ele>57</ele>
        <time>2018-04-29T08:26:21.000Z</time>
      </trkpt>
      <trkpt lat="50.53176" lon="3.45174">
        <ele>61</ele>
        <time>2018-04-29T08:26:24.000Z</time>
      </trkpt>
      <trkpt lat="50.53158" lon="3.45175">
        <ele>66</ele>
        <time>2018-04-29T08:26:30.000Z</time>
      </trkpt>
      <trkpt lat="50.53142" lon="3.45179">
        <ele>65</ele>
        <time>2018-04-29T08:26:36.000Z</time>
      </trkpt>
      <trkpt lat="50.53132" lon="3.45179">
        <ele>64</ele>
        <time>2018-04-29T08:26:39.000Z</time>
      </trkpt>
      <trkpt lat="50.53089" lon="3.45183">
        <ele>71</ele>
        <time>2018-04-29T08:26:48.000Z</time>
      </trkpt>
      <trkpt lat="50.53072" lon="3.45182">
        <ele>66</ele>
        <time>2018-04-29T08:26:54.000Z</time>
      </trkpt>
      <trkpt lat="50.53053" lon="3.45181">
        <ele>63</ele>
        <time>2018-04-29T08:27:00.000Z</time>
      </trkpt>
      <trkpt lat="50.53035" lon="3.45178">
        <ele>60</ele>
        <time>2018-04-29T08:27:06.000Z</time>
      </trkpt>
      <trkpt lat="50.53026" lon="3.45177">
        <ele>58</ele>
        <time>2018-04-29T08:27:09.000Z</time>
      </trkpt>
      <trkpt lat="50.53008" lon="3.4517">
        <ele>58</ele>
        <time>2018-04-29T08:27:15.000Z</time>
      </trkpt>
      <trkpt lat="50.52966" lon="3.45143">
        <ele>62</ele>
        <time>2018-04-29T08:27:24.000Z</time>
      </trkpt>
      <trkpt lat="50.52948" lon="3.45133">
        <ele>59</ele>
        <time>2018-04-29T08:27:30.000Z</time>
      </trkpt>
      <trkpt lat="50.5294" lon="3.45129">
        <ele>62</ele>
        <time>2018-04-29T08:27:33.000Z</time>
      </trkpt>
      <trkpt lat="50.52921" lon="3.45123">
        <ele>63</ele>
        <time>2018-04-29T08:27:39.000Z</time>
      </trkpt>
      <trkpt lat="50.52911" lon="3.4512">
        <ele>60</ele>
        <time>2018-04-29T08:27:42.000Z</time>
      </trkpt>
      <trkpt lat="50.529" lon="3.4511">
        <ele>63</ele>
        <time>2018-04-29T08:27:48.000Z</time>
      </trkpt>
      <trkpt lat="50.52897" lon="3.45104">
        <ele>59</ele>
        <time>2018-04-29T08:27:51.000Z</time>
      </trkpt>
      <trkpt lat="50.52891" lon="3.45091">
        <ele>62</ele>
        <time>2018-04-29T08:27:57.000Z</time>
      </trkpt>
      <trkpt lat="50.52883" lon="3.4507">
        <ele>58</ele>
        <time>2018-04-29T08:28:03.000Z</time>
      </trkpt>
      <trkpt lat="50.5288" lon="3.45063">
        <ele>64</ele>
        <time>2018-04-29T08:28:06.000Z</time>
      </trkpt>
      <trkpt lat="50.52874" lon="3.45046">
        <ele>64</ele>
        <time>2018-04-29T08:28:12.000Z</time>
      </trkpt>
      <trkpt lat="50.52871" lon="3.45036">
        <ele>65</ele>
        <time>2018-04-29T08:28:15.000Z</time>
      </trkpt>
      <trkpt lat="50.52863" lon="3.45013">
        <ele>58</ele>
        <time>2018-04-29T08:28:21.000Z</time>
      </trkpt>
      <trkpt lat="50.52858" lon="3.45002">
        <ele>58</ele>
        <time>2018-04-29T08:28:24.000Z</time>
      </trkpt>
      <trkpt lat="50.52855" lon="3.44992">
        <ele>60</ele>
        <time>2018-04-29T08:28:27.000Z</time>
      </trkpt>
      <trkpt lat="50.52852" lon="3.44982">
        <ele>60</ele>
        <time>2018-04-29T08:28:30.000Z</time>
      </trkpt>
      <trkpt lat="50.52845" lon="3.44963">
        <ele>55</ele>
        <time>2018-04-29T08:28:36.000Z</time>
      </trkpt>
      <trkpt lat="50.52841" lon="3.44955">
        <ele>53</ele>
        <time>2018-04-29T08:28:39.000Z</time>
      </trkpt>
      <trkpt lat="50.52835" lon="3.4494">
        <ele>57</ele>
        <time>2018-04-29T08:28:45.000Z</time>
      </trkpt>
      <trkpt lat="50.52829" lon="3.44926">
        <ele>56</ele>
        <time>2018-04-29T08:28:51.000Z</time>
      </trkpt>
      <trkpt lat="50.52826" lon="3.44919">
        <ele>52</ele>
        <time>2018-04-29T08:28:54.000Z</time>
      </trkpt>
      <trkpt lat="50.52822" lon="3.44912">
        <ele>50</ele>
        <time>2018-04-29T08:28:57.000Z</time>
      </trkpt>
      <trkpt lat="50.52815" lon="3.44895">
        <ele>51</ele>
        <time>2018-04-29T08:29:03.000Z</time>
      </trkpt>
      <trkpt lat="50.52811" lon="3.44885">
        <ele>50</ele>
        <time>2018-04-29T08:29:06.000Z</time>
      </trkpt>
      <trkpt lat="50.52806" lon="3.44875">
        <ele>50</ele>
        <time>2018-04-29T08:29:09.000Z</time>
      </trkpt>
      <trkpt lat="50.52801" lon="3.44864">
        <ele>48</ele>
        <time>2018-04-29T08:29:12.000Z</time>
      </trkpt>
      <trkpt lat="50.52795" lon="3.44843">
        <ele>48</ele>
        <time>2018-04-29T08:29:18.000Z</time>
      </trkpt>
      <trkpt lat="50.52789" lon="3.44822">
        <ele>48</ele>
        <time>2018-04-29T08:29:24.000Z</time>
      </trkpt>
      <trkpt lat="50.52785" lon="3.44811">
        <ele>49</ele>
        <time>2018-04-29T08:29:27.000Z</time>
      </trkpt>
      <trkpt lat="50.52783" lon="3.44802">
        <ele>46</ele>
        <time>2018-04-29T08:29:30.000Z</time>
      </trkpt>
      <trkpt lat="50.52777" lon="3.44782">
        <ele>48</ele>
        <time>2018-04-29T08:29:36.000Z</time>
      </trkpt>
      <trkpt lat="50.52774" lon="3.44774">
        <ele>49</ele>
        <time>2018-04-29T08:29:39.000Z</time>
      </trkpt>
      <trkpt lat="50.52771" lon="3.44768">
        <ele>52</ele>
        <time>2018-04-29T08:29:45.000Z</time>
      </trkpt>
      <trkpt lat="50.52768" lon="3.4476">
        <ele>52</ele>
        <time>2018-04-29T08:29:51.000Z</time>
      </trkpt>
      <trkpt lat="50.52761" lon="3.44748">
        <ele>55</ele>
        <time>2018-04-29T08:30:00.000Z</time>
      </trkpt>
      <trkpt lat="50.52752" lon="3.4473">
        <ele>55</ele>
        <time>2018-04-29T08:30:06.000Z</time>
      </trkpt>
      <trkpt lat="50.52748" lon="3.44723">
        <ele>56</ele>
        <time>2018-04-29T08:30:09.000Z</time>
      </trkpt>
      <trkpt lat="50.52742" lon="3.44708">
        <ele>57</ele>
        <time>2018-04-29T08:30:15.000Z</time>
      </trkpt>
      <trkpt lat="50.52739" lon="3.44699">
        <ele>56</ele>
        <time>2018-04-29T08:30:18.000Z</time>
      </trkpt>
      <trkpt lat="50.52733" lon="3.44682">
        <ele>57</ele>
        <time>2018-04-29T08:30:24.000Z</time>
      </trkpt>
      <trkpt lat="50.52726" lon="3.44663">
        <ele>52</ele>
        <time>2018-04-29T08:30:30.000Z</time>
      </trkpt>
      <trkpt lat="50.52717" lon="3.44647">
        <ele>50</ele>
        <time>2018-04-29T08:30:36.000Z</time>
      </trkpt>
      <trkpt lat="50.5271" lon="3.44633">
        <ele>49</ele>
        <time>2018-04-29T08:30:42.000Z</time>
      </trkpt>
      <trkpt lat="50.52704" lon="3.44619">
        <ele>47</ele>
        <time>2018-04-29T08:30:48.000Z</time>
      </trkpt>
      <trkpt lat="50.52696" lon="3.44602">
        <ele>47</ele>
        <time>2018-04-29T08:30:54.000Z</time>
      </trkpt>
      <trkpt lat="50.52694" lon="3.44594">
        <ele>55</ele>
        <time>2018-04-29T08:30:57.000Z</time>
      </trkpt>
      <trkpt lat="50.52689" lon="3.44579">
        <ele>57</ele>
        <time>2018-04-29T08:31:03.000Z</time>
      </trkpt>
      <trkpt lat="50.52688" lon="3.44573">
        <ele>58</ele>
        <time>2018-04-29T08:31:06.000Z</time>
      </trkpt>
      <trkpt lat="50.52685" lon="3.44559">
        <ele>60</ele>
        <time>2018-04-29T08:31:12.000Z</time>
      </trkpt>
      <trkpt lat="50.52681" lon="3.4454">
        <ele>61</ele>
        <time>2018-04-29T08:31:18.000Z</time>
      </trkpt>
      <trkpt lat="50.52679" lon="3.44533">
        <ele>60</ele>
        <time>2018-04-29T08:31:21.000Z</time>
      </trkpt>
      <trkpt lat="50.52675" lon="3.4452">
        <ele>58</ele>
        <time>2018-04-29T08:31:27.000Z</time>
      </trkpt>
      <trkpt lat="50.52666" lon="3.44503">
        <ele>64</ele>
        <time>2018-04-29T08:31:36.000Z</time>
      </trkpt>
      <trkpt lat="50.52659" lon="3.44486">
        <ele>55</ele>
        <time>2018-04-29T08:31:42.000Z</time>
      </trkpt>
      <trkpt lat="50.52654" lon="3.44476">
        <ele>54</ele>
        <time>2018-04-29T08:31:45.000Z</time>
      </trkpt>
      <trkpt lat="50.52648" lon="3.44462">
        <ele>58</ele>
        <time>2018-04-29T08:31:51.000Z</time>
      </trkpt>
      <trkpt lat="50.52646" lon="3.44456">
        <ele>56</ele>
        <time>2018-04-29T08:31:54.000Z</time>
      </trkpt>
      <trkpt lat="50.52639" lon="3.44446">
        <ele>55</ele>
        <time>2018-04-29T08:32:00.000Z</time>
      </trkpt>
      <trkpt lat="50.52636" lon="3.44439">
        <ele>55</ele>
        <time>2018-04-29T08:32:03.000Z</time>
      </trkpt>
      <trkpt lat="50.52631" lon="3.44425">
        <ele>60</ele>
        <time>2018-04-29T08:32:09.000Z</time>
      </trkpt>
      <trkpt lat="50.52629" lon="3.44417">
        <ele>60</ele>
        <time>2018-04-29T08:32:12.000Z</time>
      </trkpt>
      <trkpt lat="50.52623" lon="3.44403">
        <ele>59</ele>
        <time>2018-04-29T08:32:18.000Z</time>
      </trkpt>
      <trkpt lat="50.52614" lon="3.44382">
        <ele>55</ele>
        <time>2018-04-29T08:32:24.000Z</time>
      </trkpt>
      <trkpt lat="50.5261" lon="3.4437">
        <ele>54</ele>
        <time>2018-04-29T08:32:27.000Z</time>
      </trkpt>
      <trkpt lat="50.526" lon="3.44349">
        <ele>56</ele>
        <time>2018-04-29T08:32:33.000Z</time>
      </trkpt>
      <trkpt lat="50.52591" lon="3.44323">
        <ele>57</ele>
        <time>2018-04-29T08:32:39.000Z</time>
      </trkpt>
      <trkpt lat="50.52586" lon="3.44311">
        <ele>58</ele>
        <time>2018-04-29T08:32:42.000Z</time>
      </trkpt>
      <trkpt lat="50.5258" lon="3.44291">
        <ele>55</ele>
        <time>2018-04-29T08:32:48.000Z</time>
      </trkpt>
      <trkpt lat="50.52574" lon="3.44267">
        <ele>58</ele>
        <time>2018-04-29T08:32:54.000Z</time>
      </trkpt>
      <trkpt lat="50.52566" lon="3.44244">
        <ele>59</ele>
        <time>2018-04-29T08:33:00.000Z</time>
      </trkpt>
      <trkpt lat="50.52561" lon="3.44234">
        <ele>57</ele>
        <time>2018-04-29T08:33:03.000Z</time>
      </trkpt>
      <trkpt lat="50.52553" lon="3.44217">
        <ele>58</ele>
        <time>2018-04-29T08:33:09.000Z</time>
      </trkpt>
      <trkpt lat="50.52544" lon="3.44196">
        <ele>57</ele>
        <time>2018-04-29T08:33:15.000Z</time>
      </trkpt>
      <trkpt lat="50.52536" lon="3.44178">
        <ele>56</ele>
        <time>2018-04-29T08:33:21.000Z</time>
      </trkpt>
      <trkpt lat="50.52531" lon="3.4417">
        <ele>57</ele>
        <time>2018-04-29T08:33:24.000Z</time>
      </trkpt>
      <trkpt lat="50.52521" lon="3.44154">
        <ele>56</ele>
        <time>2018-04-29T08:33:30.000Z</time>
      </trkpt>
      <trkpt lat="50.52516" lon="3.44145">
        <ele>56</ele>
        <time>2018-04-29T08:33:33.000Z</time>
      </trkpt>
      <trkpt lat="50.52503" lon="3.44127">
        <ele>55</ele>
        <time>2018-04-29T08:33:39.000Z</time>
      </trkpt>
      <trkpt lat="50.52498" lon="3.44118">
        <ele>57</ele>
        <time>2018-04-29T08:33:42.000Z</time>
      </trkpt>
      <trkpt lat="50.52486" lon="3.44098">
        <ele>58</ele>
        <time>2018-04-29T08:33:48.000Z</time>
      </trkpt>
      <trkpt lat="50.5248" lon="3.44089">
        <ele>57</ele>
        <time>2018-04-29T08:33:51.000Z</time>
      </trkpt>
      <trkpt lat="50.52474" lon="3.4408">
        <ele>57</ele>
        <time>2018-04-29T08:33:54.000Z</time>
      </trkpt>
      <trkpt lat="50.52464" lon="3.44062">
        <ele>55</ele>
        <time>2018-04-29T08:34:00.000Z</time>
      </trkpt>
      <trkpt lat="50.52459" lon="3.44053">
        <ele>57</ele>
        <time>2018-04-29T08:34:03.000Z</time>
      </trkpt>
      <trkpt lat="50.5245" lon="3.44039">
        <ele>57</ele>
        <time>2018-04-29T08:34:09.000Z</time>
      </trkpt>
      <trkpt lat="50.52446" lon="3.44031">
        <ele>56</ele>
        <time>2018-04-29T08:34:12.000Z</time>
      </trkpt>
      <trkpt lat="50.52439" lon="3.44024">
        <ele>54</ele>
        <time>2018-04-29T08:34:18.000Z</time>
      </trkpt>
      <trkpt lat="50.52436" lon="3.44035">
        <ele>56</ele>
        <time>2018-04-29T08:34:24.000Z</time>
      </trkpt>
      <trkpt lat="50.52436" lon="3.44045">
        <ele>59</ele>
        <time>2018-04-29T08:34:27.000Z</time>
      </trkpt>
      <trkpt lat="50.52438" lon="3.44092">
        <ele>58</ele>
        <time>2018-04-29T08:34:33.000Z</time>
      </trkpt>
      <trkpt lat="50.52437" lon="3.4411">
        <ele>59</ele>
        <time>2018-04-29T08:34:36.000Z</time>
      </trkpt>
      <trkpt lat="50.52438" lon="3.44149">
        <ele>59</ele>
        <time>2018-04-29T08:34:42.000Z</time>
      </trkpt>
      <trkpt lat="50.52438" lon="3.44168">
        <ele>60</ele>
        <time>2018-04-29T08:34:45.000Z</time>
      </trkpt>
      <trkpt lat="50.52438" lon="3.44187">
        <ele>59</ele>
        <time>2018-04-29T08:34:48.000Z</time>
      </trkpt>
      <trkpt lat="50.52437" lon="3.44211">
        <ele>61</ele>
        <time>2018-04-29T08:34:54.000Z</time>
      </trkpt>
      <trkpt lat="50.52433" lon="3.44225">
        <ele>58</ele>
        <time>2018-04-29T08:35:00.000Z</time>
      </trkpt>
      <trkpt lat="50.52428" lon="3.44224">
        <ele>58</ele>
        <time>2018-04-29T08:35:03.000Z</time>
      </trkpt>
      <trkpt lat="50.52416" lon="3.44212">
        <ele>57</ele>
        <time>2018-04-29T08:35:09.000Z</time>
      </trkpt>
      <trkpt lat="50.52402" lon="3.44197">
        <ele>56</ele>
        <time>2018-04-29T08:35:15.000Z</time>
      </trkpt>
      <trkpt lat="50.52373" lon="3.44167">
        <ele>55</ele>
        <time>2018-04-29T08:35:21.000Z</time>
      </trkpt>
      <trkpt lat="50.5235" lon="3.44148">
        <ele>55</ele>
        <time>2018-04-29T08:35:27.000Z</time>
      </trkpt>
      <trkpt lat="50.52339" lon="3.44143">
        <ele>50</ele>
        <time>2018-04-29T08:35:30.000Z</time>
      </trkpt>
      <trkpt lat="50.52328" lon="3.44138">
        <ele>51</ele>
        <time>2018-04-29T08:35:33.000Z</time>
      </trkpt>
      <trkpt lat="50.52322" lon="3.44134">
        <ele>48</ele>
        <time>2018-04-29T08:35:36.000Z</time>
      </trkpt>
      <trkpt lat="50.52315" lon="3.44129">
        <ele>45</ele>
        <time>2018-04-29T08:35:39.000Z</time>
      </trkpt>
      <trkpt lat="50.5231" lon="3.44121">
        <ele>45</ele>
        <time>2018-04-29T08:35:42.000Z</time>
      </trkpt>
      <trkpt lat="50.52292" lon="3.44081">
        <ele>47</ele>
        <time>2018-04-29T08:35:48.000Z</time>
      </trkpt>
      <trkpt lat="50.52278" lon="3.4405">
        <ele>49</ele>
        <time>2018-04-29T08:35:54.000Z</time>
      </trkpt>
      <trkpt lat="50.52271" lon="3.44033">
        <ele>50</ele>
        <time>2018-04-29T08:35:57.000Z</time>
      </trkpt>
      <trkpt lat="50.52256" lon="3.43998">
        <ele>51</ele>
        <time>2018-04-29T08:36:03.000Z</time>
      </trkpt>
      <trkpt lat="50.52247" lon="3.43984">
        <ele>52</ele>
        <time>2018-04-29T08:36:06.000Z</time>
      </trkpt>
      <trkpt lat="50.52238" lon="3.43973">
        <ele>51</ele>
        <time>2018-04-29T08:36:09.000Z</time>
      </trkpt>
      <trkpt lat="50.52228" lon="3.43961">
        <ele>53</ele>
        <time>2018-04-29T08:36:12.000Z</time>
      </trkpt>
      <trkpt lat="50.52219" lon="3.43949">
        <ele>52</ele>
        <time>2018-04-29T08:36:15.000Z</time>
      </trkpt>
      <trkpt lat="50.52209" lon="3.43939">
        <ele>53</ele>
        <time>2018-04-29T08:36:18.000Z</time>
      </trkpt>
      <trkpt lat="50.52199" lon="3.43927">
        <ele>52</ele>
        <time>2018-04-29T08:36:21.000Z</time>
      </trkpt>
      <trkpt lat="50.5218" lon="3.43906">
        <ele>51</ele>
        <time>2018-04-29T08:36:27.000Z</time>
      </trkpt>
      <trkpt lat="50.52171" lon="3.43896">
        <ele>52</ele>
        <time>2018-04-29T08:36:30.000Z</time>
      </trkpt>
      <trkpt lat="50.52148" lon="3.43871">
        <ele>54</ele>
        <time>2018-04-29T08:36:36.000Z</time>
      </trkpt>
      <trkpt lat="50.52127" lon="3.43847">
        <ele>55</ele>
        <time>2018-04-29T08:36:42.000Z</time>
      </trkpt>
      <trkpt lat="50.52117" lon="3.43834">
        <ele>55</ele>
        <time>2018-04-29T08:36:45.000Z</time>
      </trkpt>
      <trkpt lat="50.52106" lon="3.43823">
        <ele>55</ele>
        <time>2018-04-29T08:36:48.000Z</time>
      </trkpt>
      <trkpt lat="50.52087" lon="3.43804">
        <ele>55</ele>
        <time>2018-04-29T08:36:54.000Z</time>
      </trkpt>
      <trkpt lat="50.52078" lon="3.43793">
        <ele>56</ele>
        <time>2018-04-29T08:36:57.000Z</time>
      </trkpt>
      <trkpt lat="50.52067" lon="3.4378">
        <ele>55</ele>
        <time>2018-04-29T08:37:00.000Z</time>
      </trkpt>
      <trkpt lat="50.52057" lon="3.43768">
        <ele>54</ele>
        <time>2018-04-29T08:37:03.000Z</time>
      </trkpt>
      <trkpt lat="50.52048" lon="3.43757">
        <ele>54</ele>
        <time>2018-04-29T08:37:06.000Z</time>
      </trkpt>
      <trkpt lat="50.52029" lon="3.43735">
        <ele>51</ele>
        <time>2018-04-29T08:37:12.000Z</time>
      </trkpt>
      <trkpt lat="50.52018" lon="3.43721">
        <ele>49</ele>
        <time>2018-04-29T08:37:18.000Z</time>
      </trkpt>
      <trkpt lat="50.52007" lon="3.43707">
        <ele>49</ele>
        <time>2018-04-29T08:37:24.000Z</time>
      </trkpt>
      <trkpt lat="50.51972" lon="3.43655">
        <ele>51</ele>
        <time>2018-04-29T08:37:33.000Z</time>
      </trkpt>
      <trkpt lat="50.51964" lon="3.43639">
        <ele>52</ele>
        <time>2018-04-29T08:37:36.000Z</time>
      </trkpt>
      <trkpt lat="50.51944" lon="3.43606">
        <ele>53</ele>
        <time>2018-04-29T08:37:42.000Z</time>
      </trkpt>
      <trkpt lat="50.51934" lon="3.43588">
        <ele>52</ele>
        <time>2018-04-29T08:37:45.000Z</time>
      </trkpt>
      <trkpt lat="50.5191" lon="3.43556">
        <ele>55</ele>
        <time>2018-04-29T08:37:51.000Z</time>
      </trkpt>
      <trkpt lat="50.51887" lon="3.43516">
        <ele>56</ele>
        <time>2018-04-29T08:37:57.000Z</time>
      </trkpt>
      <trkpt lat="50.51867" lon="3.43478">
        <ele>55</ele>
        <time>2018-04-29T08:38:03.000Z</time>
      </trkpt>
      <trkpt lat="50.51856" lon="3.43461">
        <ele>56</ele>
        <time>2018-04-29T08:38:06.000Z</time>
      </trkpt>
      <trkpt lat="50.51831" lon="3.43427">
        <ele>57</ele>
        <time>2018-04-29T08:38:12.000Z</time>
      </trkpt>
      <trkpt lat="50.51819" lon="3.43422">
        <ele>59</ele>
        <time>2018-04-29T08:38:15.000Z</time>
      </trkpt>
      <trkpt lat="50.51807" lon="3.43433">
        <ele>59</ele>
        <time>2018-04-29T08:38:18.000Z</time>
      </trkpt>
      <trkpt lat="50.5178" lon="3.43462">
        <ele>57</ele>
        <time>2018-04-29T08:38:24.000Z</time>
      </trkpt>
      <trkpt lat="50.51766" lon="3.43481">
        <ele>59</ele>
        <time>2018-04-29T08:38:27.000Z</time>
      </trkpt>
      <trkpt lat="50.51743" lon="3.43519">
        <ele>60</ele>
        <time>2018-04-29T08:38:33.000Z</time>
      </trkpt>
      <trkpt lat="50.51719" lon="3.43546">
        <ele>59</ele>
        <time>2018-04-29T08:38:39.000Z</time>
      </trkpt>
      <trkpt lat="50.51705" lon="3.43556">
        <ele>59</ele>
        <time>2018-04-29T08:38:42.000Z</time>
      </trkpt>
      <trkpt lat="50.51699" lon="3.43566">
        <ele>58</ele>
        <time>2018-04-29T08:38:45.000Z</time>
      </trkpt>
      <trkpt lat="50.51695" lon="3.43571">
        <ele>57</ele>
        <time>2018-04-29T08:38:48.000Z</time>
      </trkpt>
      <trkpt lat="50.51676" lon="3.43598">
        <ele>55</ele>
        <time>2018-04-29T08:38:54.000Z</time>
      </trkpt>
      <trkpt lat="50.51656" lon="3.43625">
        <ele>53</ele>
        <time>2018-04-29T08:39:00.000Z</time>
      </trkpt>
      <trkpt lat="50.51647" lon="3.43641">
        <ele>54</ele>
        <time>2018-04-29T08:39:03.000Z</time>
      </trkpt>
      <trkpt lat="50.51635" lon="3.43657">
        <ele>55</ele>
        <time>2018-04-29T08:39:06.000Z</time>
      </trkpt>
      <trkpt lat="50.51623" lon="3.43674">
        <ele>58</ele>
        <time>2018-04-29T08:39:09.000Z</time>
      </trkpt>
      <trkpt lat="50.5161" lon="3.43689">
        <ele>58</ele>
        <time>2018-04-29T08:39:12.000Z</time>
      </trkpt>
      <trkpt lat="50.51594" lon="3.43724">
        <ele>57</ele>
        <time>2018-04-29T08:39:18.000Z</time>
      </trkpt>
      <trkpt lat="50.51588" lon="3.43745">
        <ele>54</ele>
        <time>2018-04-29T08:39:21.000Z</time>
      </trkpt>
      <trkpt lat="50.5158" lon="3.43791">
        <ele>56</ele>
        <time>2018-04-29T08:39:27.000Z</time>
      </trkpt>
      <trkpt lat="50.51577" lon="3.43841">
        <ele>58</ele>
        <time>2018-04-29T08:39:33.000Z</time>
      </trkpt>
      <trkpt lat="50.51583" lon="3.43887">
        <ele>58</ele>
        <time>2018-04-29T08:39:39.000Z</time>
      </trkpt>
      <trkpt lat="50.51585" lon="3.43914">
        <ele>58</ele>
        <time>2018-04-29T08:39:42.000Z</time>
      </trkpt>
      <trkpt lat="50.51589" lon="3.43938">
        <ele>57</ele>
        <time>2018-04-29T08:39:45.000Z</time>
      </trkpt>
      <trkpt lat="50.51592" lon="3.43965">
        <ele>58</ele>
        <time>2018-04-29T08:39:48.000Z</time>
      </trkpt>
      <trkpt lat="50.51594" lon="3.43989">
        <ele>57</ele>
        <time>2018-04-29T08:39:51.000Z</time>
      </trkpt>
      <trkpt lat="50.51601" lon="3.44042">
        <ele>57</ele>
        <time>2018-04-29T08:39:57.000Z</time>
      </trkpt>
      <trkpt lat="50.51604" lon="3.4409">
        <ele>54</ele>
        <time>2018-04-29T08:40:03.000Z</time>
      </trkpt>
      <trkpt lat="50.51603" lon="3.44115">
        <ele>55</ele>
        <time>2018-04-29T08:40:06.000Z</time>
      </trkpt>
      <trkpt lat="50.51602" lon="3.4416">
        <ele>58</ele>
        <time>2018-04-29T08:40:12.000Z</time>
      </trkpt>
      <trkpt lat="50.51602" lon="3.44211">
        <ele>61</ele>
        <time>2018-04-29T08:40:18.000Z</time>
      </trkpt>
      <trkpt lat="50.51603" lon="3.44238">
        <ele>63</ele>
        <time>2018-04-29T08:40:21.000Z</time>
      </trkpt>
      <trkpt lat="50.516" lon="3.44264">
        <ele>65</ele>
        <time>2018-04-29T08:40:24.000Z</time>
      </trkpt>
      <trkpt lat="50.51599" lon="3.44311">
        <ele>65</ele>
        <time>2018-04-29T08:40:30.000Z</time>
      </trkpt>
      <trkpt lat="50.51598" lon="3.44359">
        <ele>63</ele>
        <time>2018-04-29T08:40:36.000Z</time>
      </trkpt>
      <trkpt lat="50.51597" lon="3.44381">
        <ele>63</ele>
        <time>2018-04-29T08:40:39.000Z</time>
      </trkpt>
      <trkpt lat="50.51595" lon="3.44426">
        <ele>67</ele>
        <time>2018-04-29T08:40:45.000Z</time>
      </trkpt>
      <trkpt lat="50.51596" lon="3.44435">
        <ele>62</ele>
        <time>2018-04-29T08:40:48.000Z</time>
      </trkpt>
      <trkpt lat="50.51596" lon="3.44442">
        <ele>64</ele>
        <time>2018-04-29T08:40:51.000Z</time>
      </trkpt>
      <trkpt lat="50.51596" lon="3.44479">
        <ele>62</ele>
        <time>2018-04-29T08:40:57.000Z</time>
      </trkpt>
      <trkpt lat="50.51592" lon="3.4452">
        <ele>62</ele>
        <time>2018-04-29T08:41:03.000Z</time>
      </trkpt>
      <trkpt lat="50.51588" lon="3.44538">
        <ele>64</ele>
        <time>2018-04-29T08:41:06.000Z</time>
      </trkpt>
      <trkpt lat="50.51585" lon="3.44554">
        <ele>61</ele>
        <time>2018-04-29T08:41:09.000Z</time>
      </trkpt>
      <trkpt lat="50.51578" lon="3.44593">
        <ele>61</ele>
        <time>2018-04-29T08:41:15.000Z</time>
      </trkpt>
      <trkpt lat="50.51572" lon="3.44637">
        <ele>63</ele>
        <time>2018-04-29T08:41:21.000Z</time>
      </trkpt>
      <trkpt lat="50.51567" lon="3.44681">
        <ele>66</ele>
        <time>2018-04-29T08:41:27.000Z</time>
      </trkpt>
      <trkpt lat="50.51564" lon="3.44727">
        <ele>65</ele>
        <time>2018-04-29T08:41:33.000Z</time>
      </trkpt>
      <trkpt lat="50.51561" lon="3.44748">
        <ele>63</ele>
        <time>2018-04-29T08:41:36.000Z</time>
      </trkpt>
      <trkpt lat="50.51558" lon="3.44772">
        <ele>61</ele>
        <time>2018-04-29T08:41:39.000Z</time>
      </trkpt>
      <trkpt lat="50.51555" lon="3.44818">
        <ele>60</ele>
        <time>2018-04-29T08:41:45.000Z</time>
      </trkpt>
      <trkpt lat="50.51552" lon="3.4484">
        <ele>60</ele>
        <time>2018-04-29T08:41:48.000Z</time>
      </trkpt>
      <trkpt lat="50.51549" lon="3.44864">
        <ele>60</ele>
        <time>2018-04-29T08:41:51.000Z</time>
      </trkpt>
      <trkpt lat="50.51529" lon="3.44875">
        <ele>59</ele>
        <time>2018-04-29T08:41:57.000Z</time>
      </trkpt>
      <trkpt lat="50.51499" lon="3.44862">
        <ele>57</ele>
        <time>2018-04-29T08:42:03.000Z</time>
      </trkpt>
      <trkpt lat="50.5147" lon="3.44858">
        <ele>52</ele>
        <time>2018-04-29T08:42:09.000Z</time>
      </trkpt>
      <trkpt lat="50.51438" lon="3.44849">
        <ele>54</ele>
        <time>2018-04-29T08:42:15.000Z</time>
      </trkpt>
      <trkpt lat="50.51421" lon="3.44844">
        <ele>55</ele>
        <time>2018-04-29T08:42:18.000Z</time>
      </trkpt>
      <trkpt lat="50.51387" lon="3.44839">
        <ele>52</ele>
        <time>2018-04-29T08:42:24.000Z</time>
      </trkpt>
      <trkpt lat="50.5135" lon="3.44853">
        <ele>56</ele>
        <time>2018-04-29T08:42:30.000Z</time>
      </trkpt>
      <trkpt lat="50.51315" lon="3.44872">
        <ele>56</ele>
        <time>2018-04-29T08:42:36.000Z</time>
      </trkpt>
      <trkpt lat="50.51286" lon="3.44885">
        <ele>56</ele>
        <time>2018-04-29T08:42:42.000Z</time>
      </trkpt>
      <trkpt lat="50.51285" lon="3.44899">
        <ele>53</ele>
        <time>2018-04-29T08:42:45.000Z</time>
      </trkpt>
      <trkpt lat="50.51276" lon="3.44901">
        <ele>55</ele>
        <time>2018-04-29T08:42:48.000Z</time>
      </trkpt>
      <trkpt lat="50.51269" lon="3.44895">
        <ele>57</ele>
        <time>2018-04-29T08:42:51.000Z</time>
      </trkpt>
      <trkpt lat="50.51254" lon="3.44877">
        <ele>54</ele>
        <time>2018-04-29T08:42:57.000Z</time>
      </trkpt>
      <trkpt lat="50.51251" lon="3.4487">
        <ele>51</ele>
        <time>2018-04-29T08:43:00.000Z</time>
      </trkpt>
      <trkpt lat="50.51242" lon="3.44852">
        <ele>47</ele>
        <time>2018-04-29T08:43:07.000Z</time>
      </trkpt>
      <trkpt lat="50.51231" lon="3.44827">
        <ele>40</ele>
        <time>2018-04-29T08:43:13.000Z</time>
      </trkpt>
      <trkpt lat="50.51227" lon="3.44814">
        <ele>38</ele>
        <time>2018-04-29T08:43:16.000Z</time>
      </trkpt>
      <trkpt lat="50.51215" lon="3.44788">
        <ele>37</ele>
        <time>2018-04-29T08:43:22.000Z</time>
      </trkpt>
      <trkpt lat="50.51209" lon="3.44775">
        <ele>39</ele>
        <time>2018-04-29T08:43:25.000Z</time>
      </trkpt>
      <trkpt lat="50.512" lon="3.44747">
        <ele>37</ele>
        <time>2018-04-29T08:43:31.000Z</time>
      </trkpt>
      <trkpt lat="50.5117" lon="3.44646">
        <ele>45</ele>
        <time>2018-04-29T08:43:42.000Z</time>
      </trkpt>
      <trkpt lat="50.51139" lon="3.44544">
        <ele>45</ele>
        <time>2018-04-29T08:43:57.000Z</time>
      </trkpt>
      <trkpt lat="50.51138" lon="3.44533">
        <ele>41</ele>
        <time>2018-04-29T08:44:00.000Z</time>
      </trkpt>
      <trkpt lat="50.51135" lon="3.44513">
        <ele>38</ele>
        <time>2018-04-29T08:44:06.000Z</time>
      </trkpt>
      <trkpt lat="50.51134" lon="3.44503">
        <ele>40</ele>
        <time>2018-04-29T08:44:09.000Z</time>
      </trkpt>
      <trkpt lat="50.51136" lon="3.44479">
        <ele>51</ele>
        <time>2018-04-29T08:44:15.000Z</time>
      </trkpt>
      <trkpt lat="50.51158" lon="3.44443">
        <ele>52</ele>
        <time>2018-04-29T08:44:21.000Z</time>
      </trkpt>
      <trkpt lat="50.51177" lon="3.44428">
        <ele>38</ele>
        <time>2018-04-29T08:44:27.000Z</time>
      </trkpt>
      <trkpt lat="50.51175" lon="3.44397">
        <ele>39</ele>
        <time>2018-04-29T08:44:33.000Z</time>
      </trkpt>
      <trkpt lat="50.51161" lon="3.44365">
        <ele>43</ele>
        <time>2018-04-29T08:44:39.000Z</time>
      </trkpt>
      <trkpt lat="50.51156" lon="3.44352">
        <ele>47</ele>
        <time>2018-04-29T08:44:42.000Z</time>
      </trkpt>
      <trkpt lat="50.51151" lon="3.44341">
        <ele>49</ele>
        <time>2018-04-29T08:44:45.000Z</time>
      </trkpt>
      <trkpt lat="50.51142" lon="3.44326">
        <ele>49</ele>
        <time>2018-04-29T08:44:51.000Z</time>
      </trkpt>
      <trkpt lat="50.51137" lon="3.44323">
        <ele>51</ele>
        <time>2018-04-29T08:44:54.000Z</time>
      </trkpt>
      <trkpt lat="50.51131" lon="3.44322">
        <ele>51</ele>
        <time>2018-04-29T08:44:57.000Z</time>
      </trkpt>
      <trkpt lat="50.51124" lon="3.44321">
        <ele>50</ele>
        <time>2018-04-29T08:45:00.000Z</time>
      </trkpt>
      <trkpt lat="50.51108" lon="3.44322">
        <ele>50</ele>
        <time>2018-04-29T08:45:06.000Z</time>
      </trkpt>
      <trkpt lat="50.51099" lon="3.44324">
        <ele>51</ele>
        <time>2018-04-29T08:45:09.000Z</time>
      </trkpt>
      <trkpt lat="50.51081" lon="3.44328">
        <ele>51</ele>
        <time>2018-04-29T08:45:15.000Z</time>
      </trkpt>
      <trkpt lat="50.51072" lon="3.4433">
        <ele>46</ele>
        <time>2018-04-29T08:45:18.000Z</time>
      </trkpt>
      <trkpt lat="50.51063" lon="3.44333">
        <ele>48</ele>
        <time>2018-04-29T08:45:21.000Z</time>
      </trkpt>
      <trkpt lat="50.51046" lon="3.44339">
        <ele>50</ele>
        <time>2018-04-29T08:45:27.000Z</time>
      </trkpt>
      <trkpt lat="50.51037" lon="3.44341">
        <ele>50</ele>
        <time>2018-04-29T08:45:30.000Z</time>
      </trkpt>
      <trkpt lat="50.51019" lon="3.44345">
        <ele>50</ele>
        <time>2018-04-29T08:45:36.000Z</time>
      </trkpt>
      <trkpt lat="50.51002" lon="3.4435">
        <ele>53</ele>
        <time>2018-04-29T08:45:42.000Z</time>
      </trkpt>
      <trkpt lat="50.50982" lon="3.44356">
        <ele>59</ele>
        <time>2018-04-29T08:45:48.000Z</time>
      </trkpt>
      <trkpt lat="50.50973" lon="3.4436">
        <ele>56</ele>
        <time>2018-04-29T08:45:51.000Z</time>
      </trkpt>
      <trkpt lat="50.50957" lon="3.44372">
        <ele>56</ele>
        <time>2018-04-29T08:45:57.000Z</time>
      </trkpt>
      <trkpt lat="50.50949" lon="3.44381">
        <ele>57</ele>
        <time>2018-04-29T08:46:00.000Z</time>
      </trkpt>
      <trkpt lat="50.50942" lon="3.44391">
        <ele>57</ele>
        <time>2018-04-29T08:46:03.000Z</time>
      </trkpt>
      <trkpt lat="50.50928" lon="3.44412">
        <ele>56</ele>
        <time>2018-04-29T08:46:09.000Z</time>
      </trkpt>
      <trkpt lat="50.50916" lon="3.4443">
        <ele>57</ele>
        <time>2018-04-29T08:46:15.000Z</time>
      </trkpt>
      <trkpt lat="50.50904" lon="3.44436">
        <ele>60</ele>
        <time>2018-04-29T08:46:21.000Z</time>
      </trkpt>
      <trkpt lat="50.50899" lon="3.44432">
        <ele>62</ele>
        <time>2018-04-29T08:46:24.000Z</time>
      </trkpt>
      <trkpt lat="50.50889" lon="3.44415">
        <ele>62</ele>
        <time>2018-04-29T08:46:30.000Z</time>
      </trkpt>
      <trkpt lat="50.50879" lon="3.44393">
        <ele>65</ele>
        <time>2018-04-29T08:46:36.000Z</time>
      </trkpt>
      <trkpt lat="50.50874" lon="3.4438">
        <ele>62</ele>
        <time>2018-04-29T08:46:39.000Z</time>
      </trkpt>
      <trkpt lat="50.50868" lon="3.44357">
        <ele>67</ele>
        <time>2018-04-29T08:46:45.000Z</time>
      </trkpt>
      <trkpt lat="50.50864" lon="3.44344">
        <ele>67</ele>
        <time>2018-04-29T08:46:48.000Z</time>
      </trkpt>
      <trkpt lat="50.5086" lon="3.4433">
        <ele>66</ele>
        <time>2018-04-29T08:46:51.000Z</time>
      </trkpt>
      <trkpt lat="50.50856" lon="3.44313">
        <ele>66</ele>
        <time>2018-04-29T08:46:54.000Z</time>
      </trkpt>
      <trkpt lat="50.50847" lon="3.44284">
        <ele>65</ele>
        <time>2018-04-29T08:47:00.000Z</time>
      </trkpt>
      <trkpt lat="50.50842" lon="3.44273">
        <ele>57</ele>
        <time>2018-04-29T08:47:03.000Z</time>
      </trkpt>
      <trkpt lat="50.50836" lon="3.44259">
        <ele>53</ele>
        <time>2018-04-29T08:47:06.000Z</time>
      </trkpt>
      <trkpt lat="50.50832" lon="3.44246">
        <ele>51</ele>
        <time>2018-04-29T08:47:09.000Z</time>
      </trkpt>
      <trkpt lat="50.50821" lon="3.44226">
        <ele>49</ele>
        <time>2018-04-29T08:47:15.000Z</time>
      </trkpt>
      <trkpt lat="50.5081" lon="3.442">
        <ele>55</ele>
        <time>2018-04-29T08:47:21.000Z</time>
      </trkpt>
      <trkpt lat="50.50801" lon="3.44172">
        <ele>50</ele>
        <time>2018-04-29T08:47:28.000Z</time>
      </trkpt>
      <trkpt lat="50.50791" lon="3.4414">
        <ele>45</ele>
        <time>2018-04-29T08:47:34.000Z</time>
      </trkpt>
      <trkpt lat="50.50777" lon="3.44103">
        <ele>49</ele>
        <time>2018-04-29T08:47:39.000Z</time>
      </trkpt>
      <trkpt lat="50.50772" lon="3.44089">
        <ele>50</ele>
        <time>2018-04-29T08:47:42.000Z</time>
      </trkpt>
      <trkpt lat="50.50766" lon="3.44074">
        <ele>49</ele>
        <time>2018-04-29T08:47:46.000Z</time>
      </trkpt>
      <trkpt lat="50.50762" lon="3.44058">
        <ele>50</ele>
        <time>2018-04-29T08:47:49.000Z</time>
      </trkpt>
      <trkpt lat="50.50753" lon="3.44029">
        <ele>48</ele>
        <time>2018-04-29T08:47:54.000Z</time>
      </trkpt>
      <trkpt lat="50.50745" lon="3.44007">
        <ele>50</ele>
        <time>2018-04-29T08:48:00.000Z</time>
      </trkpt>
      <trkpt lat="50.50737" lon="3.43987">
        <ele>55</ele>
        <time>2018-04-29T08:48:06.000Z</time>
      </trkpt>
      <trkpt lat="50.50733" lon="3.43981">
        <ele>55</ele>
        <time>2018-04-29T08:48:09.000Z</time>
      </trkpt>
      <trkpt lat="50.50725" lon="3.43978">
        <ele>56</ele>
        <time>2018-04-29T08:48:15.000Z</time>
      </trkpt>
      <trkpt lat="50.50717" lon="3.43982">
        <ele>55</ele>
        <time>2018-04-29T08:48:21.000Z</time>
      </trkpt>
      <trkpt lat="50.50709" lon="3.43985">
        <ele>52</ele>
        <time>2018-04-29T08:48:27.000Z</time>
      </trkpt>
      <trkpt lat="50.50702" lon="3.43987">
        <ele>49</ele>
        <time>2018-04-29T08:48:33.000Z</time>
      </trkpt>
      <trkpt lat="50.50693" lon="3.43991">
        <ele>54</ele>
        <time>2018-04-29T08:48:39.000Z</time>
      </trkpt>
      <trkpt lat="50.5068" lon="3.43998">
        <ele>57</ele>
        <time>2018-04-29T08:48:48.000Z</time>
      </trkpt>
      <trkpt lat="50.50674" lon="3.43999">
        <ele>58</ele>
        <time>2018-04-29T08:48:52.000Z</time>
      </trkpt>
      <trkpt lat="50.50661" lon="3.44003">
        <ele>55</ele>
        <time>2018-04-29T08:48:57.000Z</time>
      </trkpt>
      <trkpt lat="50.5065" lon="3.44011">
        <ele>56</ele>
        <time>2018-04-29T08:49:03.000Z</time>
      </trkpt>
      <trkpt lat="50.50641" lon="3.44021">
        <ele>54</ele>
        <time>2018-04-29T08:49:09.000Z</time>
      </trkpt>
      <trkpt lat="50.50632" lon="3.44027">
        <ele>54</ele>
        <time>2018-04-29T08:49:12.000Z</time>
      </trkpt>
      <trkpt lat="50.50623" lon="3.44033">
        <ele>56</ele>
        <time>2018-04-29T08:49:15.000Z</time>
      </trkpt>
      <trkpt lat="50.50608" lon="3.44045">
        <ele>54</ele>
        <time>2018-04-29T08:49:21.000Z</time>
      </trkpt>
      <trkpt lat="50.50599" lon="3.4405">
        <ele>55</ele>
        <time>2018-04-29T08:49:24.000Z</time>
      </trkpt>
      <trkpt lat="50.50583" lon="3.44062">
        <ele>56</ele>
        <time>2018-04-29T08:49:30.000Z</time>
      </trkpt>
      <trkpt lat="50.50568" lon="3.44074">
        <ele>54</ele>
        <time>2018-04-29T08:49:36.000Z</time>
      </trkpt>
      <trkpt lat="50.50555" lon="3.44081">
        <ele>50</ele>
        <time>2018-04-29T08:49:42.000Z</time>
      </trkpt>
      <trkpt lat="50.50548" lon="3.44084">
        <ele>45</ele>
        <time>2018-04-29T08:49:45.000Z</time>
      </trkpt>
      <trkpt lat="50.50542" lon="3.44087">
        <ele>44</ele>
        <time>2018-04-29T08:49:48.000Z</time>
      </trkpt>
      <trkpt lat="50.50527" lon="3.4409">
        <ele>47</ele>
        <time>2018-04-29T08:49:54.000Z</time>
      </trkpt>
      <trkpt lat="50.50512" lon="3.44087">
        <ele>47</ele>
        <time>2018-04-29T08:50:00.000Z</time>
      </trkpt>
      <trkpt lat="50.50503" lon="3.44083">
        <ele>48</ele>
        <time>2018-04-29T08:50:03.000Z</time>
      </trkpt>
      <trkpt lat="50.50487" lon="3.44083">
        <ele>49</ele>
        <time>2018-04-29T08:50:09.000Z</time>
      </trkpt>
      <trkpt lat="50.5047" lon="3.44086">
        <ele>47</ele>
        <time>2018-04-29T08:50:15.000Z</time>
      </trkpt>
      <trkpt lat="50.50461" lon="3.44089">
        <ele>48</ele>
        <time>2018-04-29T08:50:18.000Z</time>
      </trkpt>
      <trkpt lat="50.50443" lon="3.44094">
        <ele>48</ele>
        <time>2018-04-29T08:50:24.000Z</time>
      </trkpt>
      <trkpt lat="50.50435" lon="3.44093">
        <ele>53</ele>
        <time>2018-04-29T08:50:27.000Z</time>
      </trkpt>
      <trkpt lat="50.50422" lon="3.44084">
        <ele>51</ele>
        <time>2018-04-29T08:50:33.000Z</time>
      </trkpt>
      <trkpt lat="50.50417" lon="3.44077">
        <ele>51</ele>
        <time>2018-04-29T08:50:39.000Z</time>
      </trkpt>
      <trkpt lat="50.50413" lon="3.44073">
        <ele>51</ele>
        <time>2018-04-29T08:51:03.000Z</time>
      </trkpt>
      <trkpt lat="50.50414" lon="3.44064">
        <ele>50</ele>
        <time>2018-04-29T08:51:42.000Z</time>
      </trkpt>
      <trkpt lat="50.50423" lon="3.44044">
        <ele>48</ele>
        <time>2018-04-29T08:51:48.000Z</time>
      </trkpt>
      <trkpt lat="50.50439" lon="3.44035">
        <ele>46</ele>
        <time>2018-04-29T08:51:54.000Z</time>
      </trkpt>
      <trkpt lat="50.50449" lon="3.44032">
        <ele>50</ele>
        <time>2018-04-29T08:51:57.000Z</time>
      </trkpt>
      <trkpt lat="50.50466" lon="3.44024">
        <ele>52</ele>
        <time>2018-04-29T08:52:03.000Z</time>
      </trkpt>
      <trkpt lat="50.50473" lon="3.44022">
        <ele>52</ele>
        <time>2018-04-29T08:52:06.000Z</time>
      </trkpt>
      <trkpt lat="50.50485" lon="3.4402">
        <ele>54</ele>
        <time>2018-04-29T08:52:12.000Z</time>
      </trkpt>
      <trkpt lat="50.50492" lon="3.44017">
        <ele>55</ele>
        <time>2018-04-29T08:52:16.000Z</time>
      </trkpt>
      <trkpt lat="50.50504" lon="3.4401">
        <ele>52</ele>
        <time>2018-04-29T08:52:21.000Z</time>
      </trkpt>
      <trkpt lat="50.50509" lon="3.44008">
        <ele>53</ele>
        <time>2018-04-29T08:52:24.000Z</time>
      </trkpt>
      <trkpt lat="50.50522" lon="3.44005">
        <ele>56</ele>
        <time>2018-04-29T08:52:30.000Z</time>
      </trkpt>
      <trkpt lat="50.5053" lon="3.44002">
        <ele>54</ele>
        <time>2018-04-29T08:52:34.000Z</time>
      </trkpt>
      <trkpt lat="50.50547" lon="3.43991">
        <ele>51</ele>
        <time>2018-04-29T08:52:40.000Z</time>
      </trkpt>
      <trkpt lat="50.50561" lon="3.43982">
        <ele>46</ele>
        <time>2018-04-29T08:52:45.000Z</time>
      </trkpt>
      <trkpt lat="50.50573" lon="3.43972">
        <ele>42</ele>
        <time>2018-04-29T08:52:51.000Z</time>
      </trkpt>
      <trkpt lat="50.50585" lon="3.43962">
        <ele>46</ele>
        <time>2018-04-29T08:52:55.000Z</time>
      </trkpt>
      <trkpt lat="50.50596" lon="3.43954">
        <ele>48</ele>
        <time>2018-04-29T08:53:00.000Z</time>
      </trkpt>
      <trkpt lat="50.50609" lon="3.43948">
        <ele>41</ele>
        <time>2018-04-29T08:53:06.000Z</time>
      </trkpt>
      <trkpt lat="50.50615" lon="3.43945">
        <ele>35</ele>
        <time>2018-04-29T08:53:09.000Z</time>
      </trkpt>
      <trkpt lat="50.50628" lon="3.43939">
        <ele>38</ele>
        <time>2018-04-29T08:53:16.000Z</time>
      </trkpt>
      <trkpt lat="50.50646" lon="3.43934">
        <ele>42</ele>
        <time>2018-04-29T08:53:22.000Z</time>
      </trkpt>
      <trkpt lat="50.50655" lon="3.43931">
        <ele>40</ele>
        <time>2018-04-29T08:53:25.000Z</time>
      </trkpt>
      <trkpt lat="50.50674" lon="3.43925">
        <ele>47</ele>
        <time>2018-04-29T08:53:31.000Z</time>
      </trkpt>
      <trkpt lat="50.50692" lon="3.43919">
        <ele>48</ele>
        <time>2018-04-29T08:53:36.000Z</time>
      </trkpt>
      <trkpt lat="50.5071" lon="3.43909">
        <ele>51</ele>
        <time>2018-04-29T08:53:42.000Z</time>
      </trkpt>
      <trkpt lat="50.50726" lon="3.43908">
        <ele>47</ele>
        <time>2018-04-29T08:53:48.000Z</time>
      </trkpt>
      <trkpt lat="50.50733" lon="3.43908">
        <ele>51</ele>
        <time>2018-04-29T08:53:51.000Z</time>
      </trkpt>
      <trkpt lat="50.5074" lon="3.43905">
        <ele>51</ele>
        <time>2018-04-29T08:53:54.000Z</time>
      </trkpt>
      <trkpt lat="50.50754" lon="3.43899">
        <ele>51</ele>
        <time>2018-04-29T08:54:01.000Z</time>
      </trkpt>
      <trkpt lat="50.50769" lon="3.43891">
        <ele>47</ele>
        <time>2018-04-29T08:54:06.000Z</time>
      </trkpt>
      <trkpt lat="50.50782" lon="3.43885">
        <ele>48</ele>
        <time>2018-04-29T08:54:12.000Z</time>
      </trkpt>
      <trkpt lat="50.50788" lon="3.43883">
        <ele>47</ele>
        <time>2018-04-29T08:54:15.000Z</time>
      </trkpt>
      <trkpt lat="50.508" lon="3.43876">
        <ele>47</ele>
        <time>2018-04-29T08:54:21.000Z</time>
      </trkpt>
      <trkpt lat="50.50807" lon="3.43872">
        <ele>49</ele>
        <time>2018-04-29T08:54:24.000Z</time>
      </trkpt>
      <trkpt lat="50.5082" lon="3.43867">
        <ele>53</ele>
        <time>2018-04-29T08:54:30.000Z</time>
      </trkpt>
      <trkpt lat="50.50835" lon="3.43862">
        <ele>58</ele>
        <time>2018-04-29T08:54:36.000Z</time>
      </trkpt>
      <trkpt lat="50.50841" lon="3.43859">
        <ele>59</ele>
        <time>2018-04-29T08:54:39.000Z</time>
      </trkpt>
      <trkpt lat="50.50853" lon="3.43852">
        <ele>57</ele>
        <time>2018-04-29T08:54:45.000Z</time>
      </trkpt>
      <trkpt lat="50.50869" lon="3.43848">
        <ele>60</ele>
        <time>2018-04-29T08:54:51.000Z</time>
      </trkpt>
      <trkpt lat="50.50877" lon="3.43845">
        <ele>58</ele>
        <time>2018-04-29T08:54:54.000Z</time>
      </trkpt>
      <trkpt lat="50.50885" lon="3.43842">
        <ele>55</ele>
        <time>2018-04-29T08:54:57.000Z</time>
      </trkpt>
      <trkpt lat="50.50899" lon="3.43839">
        <ele>50</ele>
        <time>2018-04-29T08:55:03.000Z</time>
      </trkpt>
      <trkpt lat="50.50912" lon="3.43835">
        <ele>47</ele>
        <time>2018-04-29T08:55:09.000Z</time>
      </trkpt>
      <trkpt lat="50.50919" lon="3.43834">
        <ele>46</ele>
        <time>2018-04-29T08:55:13.000Z</time>
      </trkpt>
      <trkpt lat="50.50934" lon="3.43829">
        <ele>51</ele>
        <time>2018-04-29T08:55:18.000Z</time>
      </trkpt>
      <trkpt lat="50.5094" lon="3.43828">
        <ele>50</ele>
        <time>2018-04-29T08:55:21.000Z</time>
      </trkpt>
      <trkpt lat="50.50954" lon="3.43826">
        <ele>50</ele>
        <time>2018-04-29T08:55:27.000Z</time>
      </trkpt>
      <trkpt lat="50.50969" lon="3.43821">
        <ele>50</ele>
        <time>2018-04-29T08:55:33.000Z</time>
      </trkpt>
      <trkpt lat="50.50978" lon="3.43821">
        <ele>56</ele>
        <time>2018-04-29T08:55:36.000Z</time>
      </trkpt>
      <trkpt lat="50.50994" lon="3.43818">
        <ele>56</ele>
        <time>2018-04-29T08:55:42.000Z</time>
      </trkpt>
      <trkpt lat="50.50998" lon="3.43813">
        <ele>55</ele>
        <time>2018-04-29T08:55:45.000Z</time>
      </trkpt>
      <trkpt lat="50.51" lon="3.43799">
        <ele>49</ele>
        <time>2018-04-29T08:55:51.000Z</time>
      </trkpt>
      <trkpt lat="50.50999" lon="3.43786">
        <ele>48</ele>
        <time>2018-04-29T08:55:54.736Z</time>
      </trkpt>
      <trkpt lat="50.50994" lon="3.43768">
        <ele>49</ele>
        <time>2018-04-29T08:55:59.000Z</time>
      </trkpt>
      <trkpt lat="50.50988" lon="3.43758">
        <ele>46</ele>
        <time>2018-04-29T08:56:02.000Z</time>
      </trkpt>
      <trkpt lat="50.5098" lon="3.43738">
        <ele>46</ele>
        <time>2018-04-29T08:56:09.000Z</time>
      </trkpt>
      <trkpt lat="50.50976" lon="3.43728">
        <ele>47</ele>
        <time>2018-04-29T08:56:12.000Z</time>
      </trkpt>
      <trkpt lat="50.50967" lon="3.43707">
        <ele>50</ele>
        <time>2018-04-29T08:56:18.000Z</time>
      </trkpt>
      <trkpt lat="50.50955" lon="3.43682">
        <ele>51</ele>
        <time>2018-04-29T08:56:25.000Z</time>
      </trkpt>
      <trkpt lat="50.50944" lon="3.43663">
        <ele>51</ele>
        <time>2018-04-29T08:56:30.000Z</time>
      </trkpt>
      <trkpt lat="50.5094" lon="3.43652">
        <ele>54</ele>
        <time>2018-04-29T08:56:33.000Z</time>
      </trkpt>
      <trkpt lat="50.50934" lon="3.43624">
        <ele>51</ele>
        <time>2018-04-29T08:56:39.000Z</time>
      </trkpt>
      <trkpt lat="50.50941" lon="3.43602">
        <ele>49</ele>
        <time>2018-04-29T08:56:45.000Z</time>
      </trkpt>
      <trkpt lat="50.50954" lon="3.43583">
        <ele>53</ele>
        <time>2018-04-29T08:56:51.000Z</time>
      </trkpt>
      <trkpt lat="50.50971" lon="3.4357">
        <ele>56</ele>
        <time>2018-04-29T08:56:57.000Z</time>
      </trkpt>
      <trkpt lat="50.50977" lon="3.43564">
        <ele>63</ele>
        <time>2018-04-29T08:57:00.000Z</time>
      </trkpt>
      <trkpt lat="50.50986" lon="3.43553">
        <ele>62</ele>
        <time>2018-04-29T08:57:06.000Z</time>
      </trkpt>
      <trkpt lat="50.50991" lon="3.43548">
        <ele>59</ele>
        <time>2018-04-29T08:57:09.716Z</time>
      </trkpt>
      <trkpt lat="50.50995" lon="3.43539">
        <ele>58</ele>
        <time>2018-04-29T08:57:14.000Z</time>
      </trkpt>
      <trkpt lat="50.51002" lon="3.43528">
        <ele>60</ele>
        <time>2018-04-29T08:57:24.000Z</time>
      </trkpt>
      <trkpt lat="50.51003" lon="3.43521">
        <ele>57</ele>
        <time>2018-04-29T08:57:27.000Z</time>
      </trkpt>
      <trkpt lat="50.51001" lon="3.43512">
        <ele>55</ele>
        <time>2018-04-29T08:57:31.000Z</time>
      </trkpt>
      <trkpt lat="50.50997" lon="3.43501">
        <ele>54</ele>
        <time>2018-04-29T08:57:39.000Z</time>
      </trkpt>
      <trkpt lat="50.5099" lon="3.43483">
        <ele>52</ele>
        <time>2018-04-29T08:57:48.000Z</time>
      </trkpt>
      <trkpt lat="50.50983" lon="3.43472">
        <ele>58</ele>
        <time>2018-04-29T08:57:54.000Z</time>
      </trkpt>
      <trkpt lat="50.50977" lon="3.43458">
        <ele>61</ele>
        <time>2018-04-29T08:58:00.000Z</time>
      </trkpt>
      <trkpt lat="50.50974" lon="3.43452">
        <ele>63</ele>
        <time>2018-04-29T08:58:03.000Z</time>
      </trkpt>
      <trkpt lat="50.50969" lon="3.43445">
        <ele>56</ele>
        <time>2018-04-29T08:58:12.000Z</time>
      </trkpt>
      <trkpt lat="50.50965" lon="3.4344">
        <ele>61</ele>
        <time>2018-04-29T08:58:15.000Z</time>
      </trkpt>
      <trkpt lat="50.50961" lon="3.43436">
        <ele>62</ele>
        <time>2018-04-29T08:58:18.000Z</time>
      </trkpt>
      <trkpt lat="50.50957" lon="3.43431">
        <ele>64</ele>
        <time>2018-04-29T08:58:21.000Z</time>
      </trkpt>
      <trkpt lat="50.50954" lon="3.43421">
        <ele>64</ele>
        <time>2018-04-29T08:58:27.000Z</time>
      </trkpt>
      <trkpt lat="50.50957" lon="3.43413">
        <ele>64</ele>
        <time>2018-04-29T08:58:33.000Z</time>
      </trkpt>
      <trkpt lat="50.5096" lon="3.43404">
        <ele>64</ele>
        <time>2018-04-29T08:58:39.000Z</time>
      </trkpt>
      <trkpt lat="50.50964" lon="3.43395">
        <ele>74</ele>
        <time>2018-04-29T08:58:48.000Z</time>
      </trkpt>
      <trkpt lat="50.50968" lon="3.4339">
        <ele>73</ele>
        <time>2018-04-29T08:59:03.000Z</time>
      </trkpt>
      <trkpt lat="50.5097" lon="3.43381">
        <ele>75</ele>
        <time>2018-04-29T08:59:12.000Z</time>
      </trkpt>
      <trkpt lat="50.50974" lon="3.43376">
        <ele>75</ele>
        <time>2018-04-29T08:59:15.000Z</time>
      </trkpt>
      <trkpt lat="50.50981" lon="3.43373">
        <ele>73</ele>
        <time>2018-04-29T08:59:18.000Z</time>
      </trkpt>
      <trkpt lat="50.50991" lon="3.43363">
        <ele>72</ele>
        <time>2018-04-29T08:59:24.000Z</time>
      </trkpt>
      <trkpt lat="50.50998" lon="3.43353">
        <ele>73</ele>
        <time>2018-04-29T08:59:27.000Z</time>
      </trkpt>
      <trkpt lat="50.51005" lon="3.43344">
        <ele>76</ele>
        <time>2018-04-29T08:59:31.000Z</time>
      </trkpt>
      <trkpt lat="50.51009" lon="3.43334">
        <ele>73</ele>
        <time>2018-04-29T08:59:35.000Z</time>
      </trkpt>
      <trkpt lat="50.51013" lon="3.43324">
        <ele>75</ele>
        <time>2018-04-29T08:59:42.000Z</time>
      </trkpt>
      <trkpt lat="50.51017" lon="3.43314">
        <ele>77</ele>
        <time>2018-04-29T08:59:48.000Z</time>
      </trkpt>
      <trkpt lat="50.51022" lon="3.43305">
        <ele>76</ele>
        <time>2018-04-29T08:59:51.000Z</time>
      </trkpt>
      <trkpt lat="50.5103" lon="3.43301">
        <ele>73</ele>
        <time>2018-04-29T08:59:55.000Z</time>
      </trkpt>
      <trkpt lat="50.51036" lon="3.43293">
        <ele>74</ele>
        <time>2018-04-29T09:00:00.716Z</time>
      </trkpt>
      <trkpt lat="50.51041" lon="3.43287">
        <ele>74</ele>
        <time>2018-04-29T09:00:05.000Z</time>
      </trkpt>
      <trkpt lat="50.51044" lon="3.43281">
        <ele>76</ele>
        <time>2018-04-29T09:00:08.000Z</time>
      </trkpt>
      <trkpt lat="50.51049" lon="3.43272">
        <ele>73</ele>
        <time>2018-04-29T09:00:15.000Z</time>
      </trkpt>
      <trkpt lat="50.51053" lon="3.43263">
        <ele>74</ele>
        <time>2018-04-29T09:00:21.000Z</time>
      </trkpt>
      <trkpt lat="50.51061" lon="3.43253">
        <ele>75</ele>
        <time>2018-04-29T09:00:30.000Z</time>
      </trkpt>
      <trkpt lat="50.51068" lon="3.43247">
        <ele>72</ele>
        <time>2018-04-29T09:00:36.000Z</time>
      </trkpt>
      <trkpt lat="50.5108" lon="3.43247">
        <ele>73</ele>
        <time>2018-04-29T09:00:45.000Z</time>
      </trkpt>
      <trkpt lat="50.5109" lon="3.43247">
        <ele>72</ele>
        <time>2018-04-29T09:00:51.000Z</time>
      </trkpt>
      <trkpt lat="50.51096" lon="3.43241">
        <ele>75</ele>
        <time>2018-04-29T09:00:57.000Z</time>
      </trkpt>
      <trkpt lat="50.51099" lon="3.43235">
        <ele>76</ele>
        <time>2018-04-29T09:01:00.000Z</time>
      </trkpt>
      <trkpt lat="50.51105" lon="3.43224">
        <ele>76</ele>
        <time>2018-04-29T09:01:06.000Z</time>
      </trkpt>
      <trkpt lat="50.51109" lon="3.43219">
        <ele>75</ele>
        <time>2018-04-29T09:01:09.000Z</time>
      </trkpt>
      <trkpt lat="50.51113" lon="3.43213">
        <ele>77</ele>
        <time>2018-04-29T09:01:12.000Z</time>
      </trkpt>
      <trkpt lat="50.51118" lon="3.43202">
        <ele>76</ele>
        <time>2018-04-29T09:01:18.000Z</time>
      </trkpt>
      <trkpt lat="50.51122" lon="3.4319">
        <ele>77</ele>
        <time>2018-04-29T09:01:24.000Z</time>
      </trkpt>
      <trkpt lat="50.51126" lon="3.43182">
        <ele>80</ele>
        <time>2018-04-29T09:01:30.000Z</time>
      </trkpt>
      <trkpt lat="50.51131" lon="3.43176">
        <ele>80</ele>
        <time>2018-04-29T09:01:33.000Z</time>
      </trkpt>
      <trkpt lat="50.51135" lon="3.43171">
        <ele>83</ele>
        <time>2018-04-29T09:01:36.000Z</time>
      </trkpt>
      <trkpt lat="50.51144" lon="3.4316">
        <ele>79</ele>
        <time>2018-04-29T09:01:42.000Z</time>
      </trkpt>
      <trkpt lat="50.51148" lon="3.43149">
        <ele>78</ele>
        <time>2018-04-29T09:01:48.000Z</time>
      </trkpt>
      <trkpt lat="50.51158" lon="3.43137">
        <ele>79</ele>
        <time>2018-04-29T09:01:57.000Z</time>
      </trkpt>
      <trkpt lat="50.51167" lon="3.43128">
        <ele>77</ele>
        <time>2018-04-29T09:02:03.000Z</time>
      </trkpt>
      <trkpt lat="50.51171" lon="3.4312">
        <ele>73</ele>
        <time>2018-04-29T09:02:09.000Z</time>
      </trkpt>
      <trkpt lat="50.51176" lon="3.4311">
        <ele>77</ele>
        <time>2018-04-29T09:02:15.000Z</time>
      </trkpt>
      <trkpt lat="50.51187" lon="3.43096">
        <ele>76</ele>
        <time>2018-04-29T09:02:24.000Z</time>
      </trkpt>
      <trkpt lat="50.51197" lon="3.43086">
        <ele>77</ele>
        <time>2018-04-29T09:02:33.000Z</time>
      </trkpt>
      <trkpt lat="50.51204" lon="3.43077">
        <ele>77</ele>
        <time>2018-04-29T09:02:39.000Z</time>
      </trkpt>
      <trkpt lat="50.51217" lon="3.43063">
        <ele>79</ele>
        <time>2018-04-29T09:02:48.000Z</time>
      </trkpt>
      <trkpt lat="50.51224" lon="3.43057">
        <ele>78</ele>
        <time>2018-04-29T09:02:54.000Z</time>
      </trkpt>
      <trkpt lat="50.5123" lon="3.43049">
        <ele>79</ele>
        <time>2018-04-29T09:03:00.000Z</time>
      </trkpt>
      <trkpt lat="50.51232" lon="3.43031">
        <ele>68</ele>
        <time>2018-04-29T09:03:09.000Z</time>
      </trkpt>
      <trkpt lat="50.51229" lon="3.43018">
        <ele>63</ele>
        <time>2018-04-29T09:03:15.000Z</time>
      </trkpt>
      <trkpt lat="50.51228" lon="3.43006">
        <ele>60</ele>
        <time>2018-04-29T09:03:21.000Z</time>
      </trkpt>
      <trkpt lat="50.51226" lon="3.42995">
        <ele>59</ele>
        <time>2018-04-29T09:03:28.000Z</time>
      </trkpt>
      <trkpt lat="50.51226" lon="3.42987">
        <ele>55</ele>
        <time>2018-04-29T09:03:33.000Z</time>
      </trkpt>
      <trkpt lat="50.51222" lon="3.42965">
        <ele>51</ele>
        <time>2018-04-29T09:03:42.000Z</time>
      </trkpt>
      <trkpt lat="50.51218" lon="3.42954">
        <ele>50</ele>
        <time>2018-04-29T09:03:45.000Z</time>
      </trkpt>
      <trkpt lat="50.51211" lon="3.42928">
        <ele>52</ele>
        <time>2018-04-29T09:03:51.000Z</time>
      </trkpt>
      <trkpt lat="50.51203" lon="3.42903">
        <ele>52</ele>
        <time>2018-04-29T09:03:57.000Z</time>
      </trkpt>
      <trkpt lat="50.51201" lon="3.4289">
        <ele>53</ele>
        <time>2018-04-29T09:04:00.000Z</time>
      </trkpt>
      <trkpt lat="50.51199" lon="3.42877">
        <ele>56</ele>
        <time>2018-04-29T09:04:03.000Z</time>
      </trkpt>
      <trkpt lat="50.512" lon="3.42847">
        <ele>54</ele>
        <time>2018-04-29T09:04:09.000Z</time>
      </trkpt>
      <trkpt lat="50.51204" lon="3.42823">
        <ele>54</ele>
        <time>2018-04-29T09:04:15.000Z</time>
      </trkpt>
      <trkpt lat="50.51213" lon="3.42798">
        <ele>53</ele>
        <time>2018-04-29T09:04:21.000Z</time>
      </trkpt>
      <trkpt lat="50.51219" lon="3.42783">
        <ele>55</ele>
        <time>2018-04-29T09:04:24.000Z</time>
      </trkpt>
      <trkpt lat="50.51249" lon="3.42744">
        <ele>52</ele>
        <time>2018-04-29T09:04:30.000Z</time>
      </trkpt>
      <trkpt lat="50.51255" lon="3.42737">
        <ele>49</ele>
        <time>2018-04-29T09:04:33.000Z</time>
      </trkpt>
      <trkpt lat="50.51262" lon="3.42731">
        <ele>47</ele>
        <time>2018-04-29T09:04:36.000Z</time>
      </trkpt>
      <trkpt lat="50.51286" lon="3.42716">
        <ele>46</ele>
        <time>2018-04-29T09:04:42.000Z</time>
      </trkpt>
      <trkpt lat="50.51298" lon="3.42702">
        <ele>51</ele>
        <time>2018-04-29T09:04:48.000Z</time>
      </trkpt>
      <trkpt lat="50.51305" lon="3.42696">
        <ele>51</ele>
        <time>2018-04-29T09:04:52.000Z</time>
      </trkpt>
      <trkpt lat="50.51319" lon="3.42681">
        <ele>51</ele>
        <time>2018-04-29T09:04:57.000Z</time>
      </trkpt>
      <trkpt lat="50.51338" lon="3.42671">
        <ele>50</ele>
        <time>2018-04-29T09:05:03.000Z</time>
      </trkpt>
      <trkpt lat="50.5136" lon="3.42661">
        <ele>44</ele>
        <time>2018-04-29T09:05:10.000Z</time>
      </trkpt>
      <trkpt lat="50.5142" lon="3.42609">
        <ele>47</ele>
        <time>2018-04-29T09:05:21.000Z</time>
      </trkpt>
      <trkpt lat="50.51428" lon="3.4259">
        <ele>48</ele>
        <time>2018-04-29T09:05:24.000Z</time>
      </trkpt>
      <trkpt lat="50.5143" lon="3.42568">
        <ele>47</ele>
        <time>2018-04-29T09:05:27.000Z</time>
      </trkpt>
      <trkpt lat="50.51433" lon="3.42548">
        <ele>45</ele>
        <time>2018-04-29T09:05:30.000Z</time>
      </trkpt>
      <trkpt lat="50.51435" lon="3.42536">
        <ele>45</ele>
        <time>2018-04-29T09:05:33.000Z</time>
      </trkpt>
      <trkpt lat="50.51451" lon="3.42501">
        <ele>50</ele>
        <time>2018-04-29T09:05:39.000Z</time>
      </trkpt>
      <trkpt lat="50.5146" lon="3.42483">
        <ele>56</ele>
        <time>2018-04-29T09:05:42.000Z</time>
      </trkpt>
      <trkpt lat="50.5147" lon="3.42469">
        <ele>54</ele>
        <time>2018-04-29T09:05:45.000Z</time>
      </trkpt>
      <trkpt lat="50.51473" lon="3.42456">
        <ele>54</ele>
        <time>2018-04-29T09:05:51.000Z</time>
      </trkpt>
      <trkpt lat="50.51476" lon="3.42449">
        <ele>53</ele>
        <time>2018-04-29T09:05:54.000Z</time>
      </trkpt>
      <trkpt lat="50.51488" lon="3.42435">
        <ele>55</ele>
        <time>2018-04-29T09:06:00.000Z</time>
      </trkpt>
      <trkpt lat="50.51529" lon="3.42399">
        <ele>60</ele>
        <time>2018-04-29T09:06:09.000Z</time>
      </trkpt>
      <trkpt lat="50.51541" lon="3.42387">
        <ele>60</ele>
        <time>2018-04-29T09:06:12.000Z</time>
      </trkpt>
      <trkpt lat="50.51558" lon="3.4236">
        <ele>54</ele>
        <time>2018-04-29T09:06:18.000Z</time>
      </trkpt>
      <trkpt lat="50.5157" lon="3.42347">
        <ele>54</ele>
        <time>2018-04-29T09:06:21.000Z</time>
      </trkpt>
      <trkpt lat="50.51591" lon="3.42324">
        <ele>57</ele>
        <time>2018-04-29T09:06:27.000Z</time>
      </trkpt>
      <trkpt lat="50.51617" lon="3.42318">
        <ele>59</ele>
        <time>2018-04-29T09:06:33.000Z</time>
      </trkpt>
      <trkpt lat="50.51631" lon="3.42317">
        <ele>60</ele>
        <time>2018-04-29T09:06:36.000Z</time>
      </trkpt>
      <trkpt lat="50.51644" lon="3.42317">
        <ele>60</ele>
        <time>2018-04-29T09:06:39.000Z</time>
      </trkpt>
      <trkpt lat="50.51652" lon="3.42315">
        <ele>56</ele>
        <time>2018-04-29T09:06:42.000Z</time>
      </trkpt>
      <trkpt lat="50.51664" lon="3.4231">
        <ele>53</ele>
        <time>2018-04-29T09:06:45.000Z</time>
      </trkpt>
      <trkpt lat="50.51695" lon="3.42296">
        <ele>53</ele>
        <time>2018-04-29T09:06:51.000Z</time>
      </trkpt>
      <trkpt lat="50.51708" lon="3.42289">
        <ele>51</ele>
        <time>2018-04-29T09:06:54.000Z</time>
      </trkpt>
      <trkpt lat="50.51732" lon="3.42279">
        <ele>47</ele>
        <time>2018-04-29T09:07:00.000Z</time>
      </trkpt>
      <trkpt lat="50.51745" lon="3.42277">
        <ele>49</ele>
        <time>2018-04-29T09:07:03.000Z</time>
      </trkpt>
      <trkpt lat="50.51758" lon="3.42274">
        <ele>49</ele>
        <time>2018-04-29T09:07:06.000Z</time>
      </trkpt>
      <trkpt lat="50.51785" lon="3.42267">
        <ele>50</ele>
        <time>2018-04-29T09:07:12.000Z</time>
      </trkpt>
      <trkpt lat="50.51798" lon="3.42264">
        <ele>52</ele>
        <time>2018-04-29T09:07:15.000Z</time>
      </trkpt>
      <trkpt lat="50.51824" lon="3.4226">
        <ele>51</ele>
        <time>2018-04-29T09:07:21.000Z</time>
      </trkpt>
      <trkpt lat="50.51837" lon="3.42261">
        <ele>53</ele>
        <time>2018-04-29T09:07:24.000Z</time>
      </trkpt>
      <trkpt lat="50.51863" lon="3.42258">
        <ele>51</ele>
        <time>2018-04-29T09:07:30.000Z</time>
      </trkpt>
      <trkpt lat="50.51877" lon="3.42257">
        <ele>50</ele>
        <time>2018-04-29T09:07:33.000Z</time>
      </trkpt>
      <trkpt lat="50.5189" lon="3.42256">
        <ele>50</ele>
        <time>2018-04-29T09:07:36.000Z</time>
      </trkpt>
      <trkpt lat="50.51914" lon="3.42261">
        <ele>50</ele>
        <time>2018-04-29T09:07:42.000Z</time>
      </trkpt>
      <trkpt lat="50.51925" lon="3.42261">
        <ele>48</ele>
        <time>2018-04-29T09:07:45.000Z</time>
      </trkpt>
      <trkpt lat="50.51951" lon="3.42264">
        <ele>47</ele>
        <time>2018-04-29T09:07:51.000Z</time>
      </trkpt>
      <trkpt lat="50.51965" lon="3.4227">
        <ele>48</ele>
        <time>2018-04-29T09:07:54.000Z</time>
      </trkpt>
      <trkpt lat="50.51973" lon="3.42275">
        <ele>45</ele>
        <time>2018-04-29T09:07:57.000Z</time>
      </trkpt>
      <trkpt lat="50.51989" lon="3.42277">
        <ele>48</ele>
        <time>2018-04-29T09:08:03.000Z</time>
      </trkpt>
      <trkpt lat="50.52007" lon="3.42277">
        <ele>47</ele>
        <time>2018-04-29T09:08:09.000Z</time>
      </trkpt>
      <trkpt lat="50.52065" lon="3.42295">
        <ele>45</ele>
        <time>2018-04-29T09:08:18.000Z</time>
      </trkpt>
      <trkpt lat="50.52079" lon="3.42308">
        <ele>47</ele>
        <time>2018-04-29T09:08:21.000Z</time>
      </trkpt>
      <trkpt lat="50.52104" lon="3.42323">
        <ele>44</ele>
        <time>2018-04-29T09:08:27.000Z</time>
      </trkpt>
      <trkpt lat="50.52118" lon="3.42331">
        <ele>47</ele>
        <time>2018-04-29T09:08:30.000Z</time>
      </trkpt>
      <trkpt lat="50.52147" lon="3.42344">
        <ele>47</ele>
        <time>2018-04-29T09:08:36.000Z</time>
      </trkpt>
      <trkpt lat="50.52172" lon="3.42361">
        <ele>47</ele>
        <time>2018-04-29T09:08:42.000Z</time>
      </trkpt>
      <trkpt lat="50.52193" lon="3.42382">
        <ele>49</ele>
        <time>2018-04-29T09:08:48.000Z</time>
      </trkpt>
      <trkpt lat="50.52208" lon="3.42393">
        <ele>49</ele>
        <time>2018-04-29T09:08:51.000Z</time>
      </trkpt>
      <trkpt lat="50.52235" lon="3.4241">
        <ele>55</ele>
        <time>2018-04-29T09:08:57.000Z</time>
      </trkpt>
      <trkpt lat="50.52248" lon="3.4242">
        <ele>58</ele>
        <time>2018-04-29T09:09:00.000Z</time>
      </trkpt>
      <trkpt lat="50.5226" lon="3.42435">
        <ele>59</ele>
        <time>2018-04-29T09:09:03.000Z</time>
      </trkpt>
      <trkpt lat="50.52281" lon="3.42455">
        <ele>63</ele>
        <time>2018-04-29T09:09:09.000Z</time>
      </trkpt>
      <trkpt lat="50.52302" lon="3.42477">
        <ele>61</ele>
        <time>2018-04-29T09:09:15.000Z</time>
      </trkpt>
      <trkpt lat="50.52323" lon="3.4251">
        <ele>62</ele>
        <time>2018-04-29T09:09:21.000Z</time>
      </trkpt>
      <trkpt lat="50.52335" lon="3.42523">
        <ele>63</ele>
        <time>2018-04-29T09:09:24.000Z</time>
      </trkpt>
      <trkpt lat="50.52357" lon="3.42551">
        <ele>62</ele>
        <time>2018-04-29T09:09:30.000Z</time>
      </trkpt>
      <trkpt lat="50.52367" lon="3.42564">
        <ele>62</ele>
        <time>2018-04-29T09:09:33.000Z</time>
      </trkpt>
      <trkpt lat="50.52388" lon="3.42589">
        <ele>66</ele>
        <time>2018-04-29T09:09:39.000Z</time>
      </trkpt>
      <trkpt lat="50.52398" lon="3.42601">
        <ele>66</ele>
        <time>2018-04-29T09:09:42.000Z</time>
      </trkpt>
      <trkpt lat="50.52412" lon="3.42618">
        <ele>72</ele>
        <time>2018-04-29T09:09:45.000Z</time>
      </trkpt>
      <trkpt lat="50.52434" lon="3.42646">
        <ele>73</ele>
        <time>2018-04-29T09:09:51.000Z</time>
      </trkpt>
      <trkpt lat="50.52445" lon="3.42659">
        <ele>73</ele>
        <time>2018-04-29T09:09:54.000Z</time>
      </trkpt>
      <trkpt lat="50.52455" lon="3.42665">
        <ele>70</ele>
        <time>2018-04-29T09:09:57.000Z</time>
      </trkpt>
      <trkpt lat="50.52464" lon="3.42679">
        <ele>71</ele>
        <time>2018-04-29T09:10:00.000Z</time>
      </trkpt>
      <trkpt lat="50.52487" lon="3.42706">
        <ele>68</ele>
        <time>2018-04-29T09:10:06.000Z</time>
      </trkpt>
      <trkpt lat="50.52503" lon="3.4273">
        <ele>67</ele>
        <time>2018-04-29T09:10:12.000Z</time>
      </trkpt>
      <trkpt lat="50.52515" lon="3.4274">
        <ele>67</ele>
        <time>2018-04-29T09:10:15.000Z</time>
      </trkpt>
      <trkpt lat="50.52525" lon="3.4275">
        <ele>65</ele>
        <time>2018-04-29T09:10:18.000Z</time>
      </trkpt>
      <trkpt lat="50.52538" lon="3.4277">
        <ele>64</ele>
        <time>2018-04-29T09:10:22.000Z</time>
      </trkpt>
      <trkpt lat="50.52559" lon="3.42797">
        <ele>61</ele>
        <time>2018-04-29T09:10:28.000Z</time>
      </trkpt>
      <trkpt lat="50.52577" lon="3.42824">
        <ele>66</ele>
        <time>2018-04-29T09:10:33.000Z</time>
      </trkpt>
      <trkpt lat="50.52601" lon="3.42853">
        <ele>71</ele>
        <time>2018-04-29T09:10:39.000Z</time>
      </trkpt>
      <trkpt lat="50.52626" lon="3.42878">
        <ele>74</ele>
        <time>2018-04-29T09:10:45.000Z</time>
      </trkpt>
      <trkpt lat="50.52652" lon="3.42909">
        <ele>76</ele>
        <time>2018-04-29T09:10:51.000Z</time>
      </trkpt>
      <trkpt lat="50.52663" lon="3.42918">
        <ele>74</ele>
        <time>2018-04-29T09:10:54.000Z</time>
      </trkpt>
      <trkpt lat="50.52676" lon="3.42927">
        <ele>71</ele>
        <time>2018-04-29T09:10:57.000Z</time>
      </trkpt>
      <trkpt lat="50.5269" lon="3.42937">
        <ele>68</ele>
        <time>2018-04-29T09:11:00.000Z</time>
      </trkpt>
      <trkpt lat="50.52718" lon="3.42953">
        <ele>61</ele>
        <time>2018-04-29T09:11:06.000Z</time>
      </trkpt>
      <trkpt lat="50.5273" lon="3.42964">
        <ele>62</ele>
        <time>2018-04-29T09:11:09.000Z</time>
      </trkpt>
      <trkpt lat="50.52742" lon="3.42974">
        <ele>65</ele>
        <time>2018-04-29T09:11:12.000Z</time>
      </trkpt>
      <trkpt lat="50.52774" lon="3.42996">
        <ele>61</ele>
        <time>2018-04-29T09:11:18.000Z</time>
      </trkpt>
      <trkpt lat="50.52801" lon="3.4301">
        <ele>62</ele>
        <time>2018-04-29T09:11:24.000Z</time>
      </trkpt>
      <trkpt lat="50.52833" lon="3.43023">
        <ele>59</ele>
        <time>2018-04-29T09:11:30.000Z</time>
      </trkpt>
      <trkpt lat="50.52849" lon="3.43028">
        <ele>61</ele>
        <time>2018-04-29T09:11:33.000Z</time>
      </trkpt>
      <trkpt lat="50.52865" lon="3.43037">
        <ele>60</ele>
        <time>2018-04-29T09:11:36.000Z</time>
      </trkpt>
      <trkpt lat="50.52898" lon="3.43049">
        <ele>60</ele>
        <time>2018-04-29T09:11:42.000Z</time>
      </trkpt>
      <trkpt lat="50.52914" lon="3.43052">
        <ele>59</ele>
        <time>2018-04-29T09:11:45.000Z</time>
      </trkpt>
      <trkpt lat="50.52929" lon="3.43056">
        <ele>60</ele>
        <time>2018-04-29T09:11:48.000Z</time>
      </trkpt>
      <trkpt lat="50.52946" lon="3.43057">
        <ele>60</ele>
        <time>2018-04-29T09:11:51.000Z</time>
      </trkpt>
      <trkpt lat="50.52976" lon="3.4306">
        <ele>54</ele>
        <time>2018-04-29T09:11:57.000Z</time>
      </trkpt>
      <trkpt lat="50.53005" lon="3.43064">
        <ele>54</ele>
        <time>2018-04-29T09:12:03.000Z</time>
      </trkpt>
      <trkpt lat="50.5302" lon="3.43065">
        <ele>52</ele>
        <time>2018-04-29T09:12:06.000Z</time>
      </trkpt>
      <trkpt lat="50.53033" lon="3.43063">
        <ele>52</ele>
        <time>2018-04-29T09:12:09.000Z</time>
      </trkpt>
      <trkpt lat="50.53048" lon="3.43063">
        <ele>56</ele>
        <time>2018-04-29T09:12:12.000Z</time>
      </trkpt>
      <trkpt lat="50.53063" lon="3.43061">
        <ele>57</ele>
        <time>2018-04-29T09:12:15.000Z</time>
      </trkpt>
      <trkpt lat="50.53079" lon="3.43059">
        <ele>56</ele>
        <time>2018-04-29T09:12:18.000Z</time>
      </trkpt>
      <trkpt lat="50.53105" lon="3.43056">
        <ele>51</ele>
        <time>2018-04-29T09:12:24.000Z</time>
      </trkpt>
      <trkpt lat="50.53131" lon="3.43057">
        <ele>49</ele>
        <time>2018-04-29T09:12:30.000Z</time>
      </trkpt>
      <trkpt lat="50.53162" lon="3.43051">
        <ele>50</ele>
        <time>2018-04-29T09:12:36.000Z</time>
      </trkpt>
      <trkpt lat="50.53176" lon="3.43052">
        <ele>51</ele>
        <time>2018-04-29T09:12:39.000Z</time>
      </trkpt>
      <trkpt lat="50.5321" lon="3.43042">
        <ele>51</ele>
        <time>2018-04-29T09:12:45.000Z</time>
      </trkpt>
      <trkpt lat="50.53238" lon="3.4304">
        <ele>48</ele>
        <time>2018-04-29T09:12:51.000Z</time>
      </trkpt>
      <trkpt lat="50.53269" lon="3.43037">
        <ele>51</ele>
        <time>2018-04-29T09:12:57.000Z</time>
      </trkpt>
      <trkpt lat="50.53283" lon="3.43037">
        <ele>47</ele>
        <time>2018-04-29T09:13:00.000Z</time>
      </trkpt>
      <trkpt lat="50.53299" lon="3.43036">
        <ele>48</ele>
        <time>2018-04-29T09:13:03.000Z</time>
      </trkpt>
      <trkpt lat="50.53332" lon="3.43034">
        <ele>45</ele>
        <time>2018-04-29T09:13:09.000Z</time>
      </trkpt>
      <trkpt lat="50.53347" lon="3.43035">
        <ele>47</ele>
        <time>2018-04-29T09:13:12.000Z</time>
      </trkpt>
      <trkpt lat="50.53377" lon="3.43038">
        <ele>48</ele>
        <time>2018-04-29T09:13:18.000Z</time>
      </trkpt>
      <trkpt lat="50.53391" lon="3.43038">
        <ele>47</ele>
        <time>2018-04-29T09:13:21.000Z</time>
      </trkpt>
      <trkpt lat="50.53403" lon="3.4304">
        <ele>47</ele>
        <time>2018-04-29T09:13:24.000Z</time>
      </trkpt>
      <trkpt lat="50.53432" lon="3.43045">
        <ele>46</ele>
        <time>2018-04-29T09:13:30.000Z</time>
      </trkpt>
      <trkpt lat="50.53447" lon="3.43046">
        <ele>43</ele>
        <time>2018-04-29T09:13:33.000Z</time>
      </trkpt>
      <trkpt lat="50.53462" lon="3.4305">
        <ele>43</ele>
        <time>2018-04-29T09:13:36.000Z</time>
      </trkpt>
      <trkpt lat="50.53475" lon="3.43053">
        <ele>42</ele>
        <time>2018-04-29T09:13:39.000Z</time>
      </trkpt>
      <trkpt lat="50.53504" lon="3.43063">
        <ele>46</ele>
        <time>2018-04-29T09:13:45.000Z</time>
      </trkpt>
      <trkpt lat="50.53536" lon="3.43073">
        <ele>44</ele>
        <time>2018-04-29T09:13:51.000Z</time>
      </trkpt>
      <trkpt lat="50.53564" lon="3.43085">
        <ele>45</ele>
        <time>2018-04-29T09:13:57.000Z</time>
      </trkpt>
      <trkpt lat="50.53596" lon="3.43097">
        <ele>45</ele>
        <time>2018-04-29T09:14:03.000Z</time>
      </trkpt>
      <trkpt lat="50.53612" lon="3.43107">
        <ele>44</ele>
        <time>2018-04-29T09:14:06.000Z</time>
      </trkpt>
      <trkpt lat="50.5364" lon="3.43119">
        <ele>46</ele>
        <time>2018-04-29T09:14:12.000Z</time>
      </trkpt>
      <trkpt lat="50.53652" lon="3.43129">
        <ele>47</ele>
        <time>2018-04-29T09:14:15.000Z</time>
      </trkpt>
      <trkpt lat="50.53684" lon="3.43152">
        <ele>47</ele>
        <time>2018-04-29T09:14:21.000Z</time>
      </trkpt>
      <trkpt lat="50.5371" lon="3.43172">
        <ele>44</ele>
        <time>2018-04-29T09:14:27.000Z</time>
      </trkpt>
      <trkpt lat="50.53723" lon="3.43184">
        <ele>43</ele>
        <time>2018-04-29T09:14:30.000Z</time>
      </trkpt>
      <trkpt lat="50.53738" lon="3.43196">
        <ele>49</ele>
        <time>2018-04-29T09:14:33.000Z</time>
      </trkpt>
      <trkpt lat="50.53751" lon="3.43203">
        <ele>49</ele>
        <time>2018-04-29T09:14:36.000Z</time>
      </trkpt>
      <trkpt lat="50.5378" lon="3.43223">
        <ele>46</ele>
        <time>2018-04-29T09:14:42.000Z</time>
      </trkpt>
      <trkpt lat="50.53793" lon="3.43234">
        <ele>45</ele>
        <time>2018-04-29T09:14:45.000Z</time>
      </trkpt>
      <trkpt lat="50.53805" lon="3.43245">
        <ele>48</ele>
        <time>2018-04-29T09:14:48.000Z</time>
      </trkpt>
      <trkpt lat="50.53819" lon="3.43257">
        <ele>49</ele>
        <time>2018-04-29T09:14:51.000Z</time>
      </trkpt>
      <trkpt lat="50.53849" lon="3.4328">
        <ele>51</ele>
        <time>2018-04-29T09:14:57.000Z</time>
      </trkpt>
      <trkpt lat="50.53862" lon="3.4329">
        <ele>49</ele>
        <time>2018-04-29T09:15:00.000Z</time>
      </trkpt>
      <trkpt lat="50.53885" lon="3.43313">
        <ele>48</ele>
        <time>2018-04-29T09:15:06.000Z</time>
      </trkpt>
      <trkpt lat="50.53901" lon="3.43324">
        <ele>47</ele>
        <time>2018-04-29T09:15:09.000Z</time>
      </trkpt>
      <trkpt lat="50.53914" lon="3.43333">
        <ele>46</ele>
        <time>2018-04-29T09:15:12.000Z</time>
      </trkpt>
      <trkpt lat="50.5393" lon="3.43345">
        <ele>46</ele>
        <time>2018-04-29T09:15:15.000Z</time>
      </trkpt>
      <trkpt lat="50.53945" lon="3.43358">
        <ele>46</ele>
        <time>2018-04-29T09:15:18.000Z</time>
      </trkpt>
      <trkpt lat="50.53972" lon="3.43377">
        <ele>47</ele>
        <time>2018-04-29T09:15:24.000Z</time>
      </trkpt>
      <trkpt lat="50.53987" lon="3.43388">
        <ele>48</ele>
        <time>2018-04-29T09:15:27.000Z</time>
      </trkpt>
      <trkpt lat="50.54002" lon="3.43396">
        <ele>47</ele>
        <time>2018-04-29T09:15:30.000Z</time>
      </trkpt>
      <trkpt lat="50.54032" lon="3.43421">
        <ele>55</ele>
        <time>2018-04-29T09:15:36.000Z</time>
      </trkpt>
      <trkpt lat="50.54057" lon="3.4344">
        <ele>50</ele>
        <time>2018-04-29T09:15:42.000Z</time>
      </trkpt>
      <trkpt lat="50.54086" lon="3.43467">
        <ele>49</ele>
        <time>2018-04-29T09:15:49.000Z</time>
      </trkpt>
      <trkpt lat="50.5411" lon="3.43481">
        <ele>45</ele>
        <time>2018-04-29T09:15:54.000Z</time>
      </trkpt>
      <trkpt lat="50.54124" lon="3.43496">
        <ele>45</ele>
        <time>2018-04-29T09:15:57.000Z</time>
      </trkpt>
      <trkpt lat="50.54149" lon="3.43514">
        <ele>43</ele>
        <time>2018-04-29T09:16:03.000Z</time>
      </trkpt>
      <trkpt lat="50.54159" lon="3.43526">
        <ele>41</ele>
        <time>2018-04-29T09:16:06.000Z</time>
      </trkpt>
      <trkpt lat="50.54181" lon="3.43542">
        <ele>37</ele>
        <time>2018-04-29T09:16:12.000Z</time>
      </trkpt>
      <trkpt lat="50.54213" lon="3.43574">
        <ele>42</ele>
        <time>2018-04-29T09:16:18.000Z</time>
      </trkpt>
      <trkpt lat="50.54243" lon="3.43595">
        <ele>48</ele>
        <time>2018-04-29T09:16:24.000Z</time>
      </trkpt>
      <trkpt lat="50.54256" lon="3.43607">
        <ele>47</ele>
        <time>2018-04-29T09:16:27.000Z</time>
      </trkpt>
      <trkpt lat="50.54258" lon="3.43649">
        <ele>49</ele>
        <time>2018-04-29T09:16:33.000Z</time>
      </trkpt>
      <trkpt lat="50.54255" lon="3.43668">
        <ele>50</ele>
        <time>2018-04-29T09:16:36.000Z</time>
      </trkpt>
      <trkpt lat="50.5425" lon="3.43689">
        <ele>51</ele>
        <time>2018-04-29T09:16:39.000Z</time>
      </trkpt>
      <trkpt lat="50.5425" lon="3.43709">
        <ele>52</ele>
        <time>2018-04-29T09:16:42.000Z</time>
      </trkpt>
      <trkpt lat="50.54242" lon="3.43754">
        <ele>54</ele>
        <time>2018-04-29T09:16:48.000Z</time>
      </trkpt>
      <trkpt lat="50.54241" lon="3.43778">
        <ele>54</ele>
        <time>2018-04-29T09:16:51.000Z</time>
      </trkpt>
      <trkpt lat="50.54239" lon="3.43799">
        <ele>59</ele>
        <time>2018-04-29T09:16:54.000Z</time>
      </trkpt>
      <trkpt lat="50.54236" lon="3.43821">
        <ele>61</ele>
        <time>2018-04-29T09:16:57.000Z</time>
      </trkpt>
      <trkpt lat="50.54233" lon="3.43842">
        <ele>63</ele>
        <time>2018-04-29T09:17:00.000Z</time>
      </trkpt>
      <trkpt lat="50.54225" lon="3.43888">
        <ele>65</ele>
        <time>2018-04-29T09:17:06.000Z</time>
      </trkpt>
      <trkpt lat="50.54223" lon="3.43918">
        <ele>65</ele>
        <time>2018-04-29T09:17:12.000Z</time>
      </trkpt>
      <trkpt lat="50.54218" lon="3.43957">
        <ele>66</ele>
        <time>2018-04-29T09:17:18.000Z</time>
      </trkpt>
      <trkpt lat="50.5422" lon="3.43967">
        <ele>66</ele>
        <time>2018-04-29T09:17:21.000Z</time>
      </trkpt>
      <trkpt lat="50.54222" lon="3.43981">
        <ele>62</ele>
        <time>2018-04-29T09:17:24.000Z</time>
      </trkpt>
      <trkpt lat="50.54222" lon="3.43994">
        <ele>63</ele>
        <time>2018-04-29T09:17:27.000Z</time>
      </trkpt>
      <trkpt lat="50.54215" lon="3.44041">
        <ele>62</ele>
        <time>2018-04-29T09:17:33.000Z</time>
      </trkpt>
      <trkpt lat="50.54208" lon="3.44099">
        <ele>70</ele>
        <time>2018-04-29T09:17:39.000Z</time>
      </trkpt>
      <trkpt lat="50.54205" lon="3.44126">
        <ele>71</ele>
        <time>2018-04-29T09:17:42.000Z</time>
      </trkpt>
      <trkpt lat="50.54197" lon="3.44175">
        <ele>69</ele>
        <time>2018-04-29T09:17:48.000Z</time>
      </trkpt>
      <trkpt lat="50.54191" lon="3.4423">
        <ele>71</ele>
        <time>2018-04-29T09:17:54.000Z</time>
      </trkpt>
      <trkpt lat="50.54181" lon="3.44274">
        <ele>70</ele>
        <time>2018-04-29T09:18:00.000Z</time>
      </trkpt>
      <trkpt lat="50.54178" lon="3.44297">
        <ele>71</ele>
        <time>2018-04-29T09:18:03.000Z</time>
      </trkpt>
      <trkpt lat="50.54172" lon="3.44347">
        <ele>72</ele>
        <time>2018-04-29T09:18:09.000Z</time>
      </trkpt>
      <trkpt lat="50.54166" lon="3.44368">
        <ele>71</ele>
        <time>2018-04-29T09:18:12.000Z</time>
      </trkpt>
      <trkpt lat="50.54162" lon="3.44392">
        <ele>69</ele>
        <time>2018-04-29T09:18:15.000Z</time>
      </trkpt>
      <trkpt lat="50.54156" lon="3.44414">
        <ele>67</ele>
        <time>2018-04-29T09:18:18.000Z</time>
      </trkpt>
      <trkpt lat="50.54149" lon="3.44463">
        <ele>63</ele>
        <time>2018-04-29T09:18:24.000Z</time>
      </trkpt>
      <trkpt lat="50.54143" lon="3.44505">
        <ele>64</ele>
        <time>2018-04-29T09:18:30.000Z</time>
      </trkpt>
      <trkpt lat="50.54136" lon="3.44548">
        <ele>64</ele>
        <time>2018-04-29T09:18:36.000Z</time>
      </trkpt>
      <trkpt lat="50.54127" lon="3.44585">
        <ele>63</ele>
        <time>2018-04-29T09:18:42.000Z</time>
      </trkpt>
      <trkpt lat="50.54124" lon="3.44598">
        <ele>60</ele>
        <time>2018-04-29T09:18:45.000Z</time>
      </trkpt>
      <trkpt lat="50.54113" lon="3.44638">
        <ele>61</ele>
        <time>2018-04-29T09:18:51.000Z</time>
      </trkpt>
      <trkpt lat="50.54112" lon="3.44648">
        <ele>62</ele>
        <time>2018-04-29T09:18:54.000Z</time>
      </trkpt>
      <trkpt lat="50.54109" lon="3.44668">
        <ele>63</ele>
        <time>2018-04-29T09:19:00.000Z</time>
      </trkpt>
      <trkpt lat="50.54098" lon="3.44737">
        <ele>66</ele>
        <time>2018-04-29T09:19:09.000Z</time>
      </trkpt>
      <trkpt lat="50.54092" lon="3.44771">
        <ele>65</ele>
        <time>2018-04-29T09:19:15.000Z</time>
      </trkpt>
      <trkpt lat="50.54089" lon="3.44789">
        <ele>68</ele>
        <time>2018-04-29T09:19:18.000Z</time>
      </trkpt>
      <trkpt lat="50.54083" lon="3.44828">
        <ele>68</ele>
        <time>2018-04-29T09:19:24.000Z</time>
      </trkpt>
      <trkpt lat="50.54082" lon="3.44837">
        <ele>70</ele>
        <time>2018-04-29T09:19:27.000Z</time>
      </trkpt>
      <trkpt lat="50.54076" lon="3.4486">
        <ele>69</ele>
        <time>2018-04-29T09:19:33.000Z</time>
      </trkpt>
      <trkpt lat="50.54072" lon="3.44871">
        <ele>73</ele>
        <time>2018-04-29T09:19:36.000Z</time>
      </trkpt>
      <trkpt lat="50.54068" lon="3.44885">
        <ele>77</ele>
        <time>2018-04-29T09:19:42.000Z</time>
      </trkpt>
      <trkpt lat="50.54069" lon="3.44893">
        <ele>85</ele>
        <time>2018-04-29T09:19:54.000Z</time>
      </trkpt>
      <trkpt lat="50.54072" lon="3.449">
        <ele>85</ele>
        <time>2018-04-29T09:20:00.000Z</time>
      </trkpt>
    </trkseg>
  </trk>
</gpx>